
Distance (Route):
Temperature : -2.5°C
Humidity : 85.6%
Pressure : 0hPa| Receiver | Frames | First received | Last received |
|---|---|---|---|
| DL9RDZ-1 | 617 | 2026-08-31 23:03:19 | 2026-09-01 01:05:59 |
| Receiver | Date | Latitude | Longitude | Direction | Speed | Altitude | Climb | Temperature | Humidity | Pressure | Voltage | Killtimer | Uptime | BKT | XDATA |
|---|---|---|---|---|---|---|---|---|---|---|---|---|---|---|---|
| DL9RDZ-1 | 2026-09-01 01:05:59 | 63.71926 | -21.73473 | 181° | 13km/h | 1803m | -13.1m/s | -2.5°C | 85.6% | 0hPa | 0V | 08:12:00 | 00:00:00 | 00:00:00 | |
| DL9RDZ-1 | 2026-09-01 01:05:42 | 63.71970 | -21.73484 | 162° | 13km/h | 2012m | -14.9m/s | -4.0°C | 84.9% | 0hPa | 0V | 08:12:00 | 00:00:00 | 00:00:00 | |
| DL9RDZ-1 | 2026-09-01 01:05:31 | 63.71999 | -21.73511 | 141° | 11km/h | 2159m | -14.7m/s | -4.9°C | 76.8% | 0hPa | 0V | 08:12:00 | 00:00:00 | 00:00:00 | |
| DL9RDZ-1 | 2026-09-01 01:05:20 | 63.72033 | -21.73555 | 162° | 18km/h | 2315m | -15.0m/s | -5.5°C | 65.8% | 0hPa | 0V | 08:12:00 | 00:00:00 | 00:00:00 | |
| DL9RDZ-1 | 2026-09-01 01:05:10 | 63.72076 | -21.73582 | 168° | 20km/h | 2452m | -13.9m/s | -6.8°C | 78.9% | 0hPa | 0V | 08:12:00 | 00:00:00 | 00:00:00 | |
| DL9RDZ-1 | 2026-09-01 01:04:59 | 63.72131 | -21.73612 | 169° | 22km/h | 2605m | -14.1m/s | -7.7°C | 69.7% | 0hPa | 0V | 08:13:00 | 00:00:00 | 00:00:00 | |
| DL9RDZ-1 | 2026-09-01 01:04:48 | 63.72181 | -21.73654 | 165° | 16km/h | 2756m | -13.9m/s | -8.8°C | 76.6% | 0hPa | 0V | 08:13:00 | 00:00:00 | 00:00:00 | |
| DL9RDZ-1 | 2026-09-01 01:04:37 | 63.72218 | -21.73699 | 149° | 13km/h | 2910m | -14.5m/s | -9.8°C | 63.1% | 0hPa | 0V | 08:13:00 | 00:00:00 | 00:00:00 | |
| DL9RDZ-1 | 2026-09-01 01:04:27 | 63.72253 | -21.73749 | 152° | 16km/h | 3050m | -14.9m/s | -10.8°C | 64.1% | 0hPa | 0V | 08:13:00 | 00:00:00 | 00:00:00 | |
| DL9RDZ-1 | 2026-09-01 01:04:16 | 63.72293 | -21.73798 | 163° | 16km/h | 3208m | -14.2m/s | -11.9°C | 58.3% | 0hPa | 0V | 08:14:00 | 00:00:00 | 00:00:00 | |
| DL9RDZ-1 | 2026-09-01 01:04:05 | 63.72343 | -21.73833 | 163° | 22km/h | 3356m | -14.7m/s | -13.0°C | 53.0% | 0hPa | 0V | 08:14:00 | 00:00:00 | 00:00:00 | |
| DL9RDZ-1 | 2026-09-01 01:03:55 | 63.72399 | -21.73878 | 155° | 24km/h | 3497m | -15.5m/s | -13.9°C | 59.5% | 0hPa | 0V | 08:14:00 | 00:00:00 | 00:00:00 | |
| DL9RDZ-1 | 2026-09-01 01:03:44 | 63.72456 | -21.73949 | 157° | 22km/h | 3659m | -14.7m/s | -15.0°C | 57.1% | 0hPa | 0V | 08:14:00 | 00:00:00 | 00:00:00 | |
| DL9RDZ-1 | 2026-09-01 01:03:33 | 63.72514 | -21.74010 | 154° | 26km/h | 3814m | -14.0m/s | -16.1°C | 65.4% | 0hPa | 0V | 08:14:00 | 00:00:00 | 00:00:00 | |
| DL9RDZ-1 | 2026-09-01 01:03:23 | 63.72571 | -21.74079 | 153° | 26km/h | 3957m | -15.2m/s | -16.9°C | 50.5% | 0hPa | 0V | 08:15:00 | 00:00:00 | 00:00:00 | |
| DL9RDZ-1 | 2026-09-01 01:03:12 | 63.72638 | -21.74150 | 155° | 29km/h | 4108m | -14.2m/s | -17.5°C | 32.4% | 0hPa | 0V | 08:15:00 | 00:00:00 | 00:00:00 | |
| DL9RDZ-1 | 2026-09-01 01:03:01 | 63.72712 | -21.74258 | 147° | 33km/h | 4264m | -14.4m/s | -18.2°C | 23.8% | 0hPa | 0V | 08:15:00 | 00:00:00 | 00:00:00 | |
| DL9RDZ-1 | 2026-09-01 01:02:50 | 63.72801 | -21.74373 | 150° | 37km/h | 4424m | -15.9m/s | -18.7°C | 23.3% | 0hPa | 0V | 08:15:00 | 00:00:00 | 00:00:00 | |
| DL9RDZ-1 | 2026-09-01 01:02:40 | 63.72883 | -21.74469 | 157° | 38km/h | 4570m | -14.5m/s | -19.4°C | 20.4% | 0hPa | 0V | 08:15:00 | 00:00:00 | 00:00:00 | |
| DL9RDZ-1 | 2026-09-01 01:02:30 | 63.72975 | -21.74577 | 149° | 42km/h | 4716m | -15.9m/s | -20.4°C | 30.0% | 0hPa | 0V | 08:16:00 | 00:00:00 | 00:00:00 | |
| DL9RDZ-1 | 2026-09-01 01:02:20 | 63.73063 | -21.74693 | 153° | 40km/h | 4862m | -14.6m/s | -21.5°C | 41.8% | 0hPa | 0V | 08:16:00 | 00:00:00 | 00:00:00 | |
| DL9RDZ-1 | 2026-09-01 01:02:09 | 63.73165 | -21.74842 | 148° | 44km/h | 5025m | -15.1m/s | -22.1°C | 57.0% | 0hPa | 0V | 08:16:00 | 00:00:00 | 00:00:00 | |
| DL9RDZ-1 | 2026-09-01 01:01:58 | 63.73273 | -21.74990 | 145° | 47km/h | 5184m | -16.0m/s | -23.1°C | 60.9% | 0hPa | 0V | 08:16:00 | 00:00:00 | 00:00:00 | |
| DL9RDZ-1 | 2026-09-01 01:01:47 | 63.73378 | -21.75163 | 146° | 49km/h | 5348m | -15.8m/s | -24.1°C | 60.9% | 0hPa | 0V | 08:16:00 | 00:00:00 | 00:00:00 | |
| DL9RDZ-1 | 2026-09-01 01:01:36 | 63.73492 | -21.75344 | 148° | 49km/h | 5516m | -15.3m/s | -24.9°C | 61.3% | 0hPa | 0V | 00:00:00 | 00:00:00 | 00:00:00 | |
| DL9RDZ-1 | 2026-09-01 01:01:26 | 63.73598 | -21.75502 | 152° | 49km/h | 5669m | -15.4m/s | -25.7°C | 60.1% | 0hPa | 0V | 00:00:00 | 00:00:00 | 00:00:00 | |
| DL9RDZ-1 | 2026-09-01 01:01:15 | 63.73720 | -21.75666 | 149° | 51km/h | 5834m | -15.7m/s | -26.9°C | 59.9% | 0hPa | 0V | 00:00:00 | 00:00:00 | 00:00:00 | |
| DL9RDZ-1 | 2026-09-01 01:01:04 | 63.73840 | -21.75852 | 145° | 53km/h | 6004m | -16.3m/s | -27.9°C | 59.1% | 0hPa | 0V | 00:00:00 | 00:00:00 | 00:00:00 | |
| DL9RDZ-1 | 2026-09-01 01:00:47 | 63.74035 | -21.76134 | 153° | 53km/h | 6281m | -16.4m/s | -29.3°C | 57.4% | 0hPa | 0V | 08:18:00 | 00:00:00 | 00:00:00 | |
| DL9RDZ-1 | 2026-09-01 01:00:37 | 63.74153 | -21.76302 | 147° | 57km/h | 6445m | -16.8m/s | -30.4°C | 57.0% | 0hPa | 0V | 08:18:00 | 00:00:00 | 00:00:00 | |
| DL9RDZ-1 | 2026-09-01 01:00:26 | 63.74287 | -21.76498 | 146° | 58km/h | 6618m | -16.2m/s | -31.5°C | 57.6% | 0hPa | 0V | 08:18:00 | 00:00:00 | 00:00:00 | |
| DL9RDZ-1 | 2026-09-01 01:00:18 | 63.74415 | -21.76667 | 153° | 60km/h | 6771m | -15.7m/s | -32.6°C | 51.9% | 0hPa | 0V | 08:18:00 | 00:00:00 | 00:00:00 | |
| DL9RDZ-1 | 2026-09-01 01:00:05 | 63.74566 | -21.76863 | 152° | 62km/h | 6941m | -15.1m/s | -33.8°C | 51.8% | 0hPa | 0V | 08:18:00 | 00:00:00 | 00:00:00 | |
| DL9RDZ-1 | 2026-09-01 00:59:54 | 63.74714 | -21.77056 | 150° | 64km/h | 7102m | -15.5m/s | -35.1°C | 54.7% | 0hPa | 0V | 08:18:00 | 00:00:00 | 00:00:00 | |
| DL9RDZ-1 | 2026-09-01 00:59:43 | 63.74865 | -21.77239 | 155° | 62km/h | 7264m | -14.7m/s | -36.4°C | 50.8% | 0hPa | 0V | 08:18:00 | 00:00:00 | 00:00:00 | |
| DL9RDZ-1 | 2026-09-01 00:59:33 | 63.75002 | -21.77411 | 149° | 62km/h | 7417m | -16.1m/s | -37.4°C | 49.7% | 0hPa | 0V | 08:18:00 | 00:00:00 | 00:00:00 | |
| DL9RDZ-1 | 2026-09-01 00:59:22 | 63.75154 | -21.77606 | 153° | 64km/h | 7588m | -15.9m/s | -38.7°C | 50.0% | 0hPa | 0V | 08:18:00 | 00:00:00 | 00:00:00 | |
| DL9RDZ-1 | 2026-09-01 00:59:11 | 63.75310 | -21.77812 | 152° | 66km/h | 7763m | -16.7m/s | -39.9°C | 50.3% | 0hPa | 0V | 00:00:00 | 00:00:00 | 00:00:00 | |
| DL9RDZ-1 | 2026-09-01 00:59:01 | 63.75457 | -21.77984 | 156° | 68km/h | 7924m | -17.1m/s | -41.1°C | 48.4% | 0hPa | 0V | 00:00:00 | 00:00:00 | 00:00:00 | |
| DL9RDZ-1 | 2026-09-01 00:58:51 | 63.75604 | -21.78155 | 153° | 68km/h | 8088m | -16.8m/s | -42.4°C | 48.4% | 0hPa | 0V | 00:00:00 | 00:00:00 | 00:00:00 | |
| DL9RDZ-1 | 2026-09-01 00:58:42 | 63.75755 | -21.78345 | 154° | 68km/h | 8253m | -16.2m/s | -43.3°C | 50.4% | 0hPa | 0V | 00:00:00 | 00:00:00 | 00:00:00 | |
| DL9RDZ-1 | 2026-09-01 00:58:30 | 63.75925 | -21.78534 | 153° | 69km/h | 8432m | -17.0m/s | -44.7°C | 52.6% | 0hPa | 0V | 00:00:00 | 00:00:00 | 00:00:00 | |
| DL9RDZ-1 | 2026-09-01 00:58:18 | 63.76114 | -21.78759 | 154° | 77km/h | 8628m | -17.2m/s | -45.9°C | 45.6% | 0hPa | 0V | 00:00:00 | 00:00:00 | 00:00:00 | |
| DL9RDZ-1 | 2026-09-01 00:58:07 | 63.76303 | -21.78969 | 157° | 77km/h | 8812m | -16.4m/s | -47.1°C | 43.3% | 0hPa | 0V | 00:00:00 | 00:00:00 | 00:00:00 | |
| DL9RDZ-1 | 2026-09-01 00:57:57 | 63.76482 | -21.79150 | 156° | 80km/h | 8978m | -17.1m/s | -48.5°C | 43.1% | 0hPa | 0V | 00:00:00 | 00:00:00 | 00:00:00 | |
| DL9RDZ-1 | 2026-09-01 00:57:46 | 63.76677 | -21.79359 | 158° | 77km/h | 9167m | -17.2m/s | -50.0°C | 41.0% | 0hPa | 0V | 00:00:00 | 00:00:00 | 00:00:00 | |
| DL9RDZ-1 | 2026-09-01 00:56:09 | 63.77993 | -21.81514 | 123° | 51km/h | 10872m | -18.2m/s | -54.2°C | 7.7% | 0hPa | 0V | 00:00:00 | 00:00:00 | 00:00:00 | |
| DL9RDZ-1 | 2026-09-01 00:55:47 | 63.78137 | -21.82091 | 125° | 47km/h | 11285m | -19.7m/s | -50.3°C | 2.1% | 0hPa | 0V | 08:23:00 | 00:00:00 | 00:00:00 | |
| DL9RDZ-1 | 2026-09-01 00:55:36 | 63.78201 | -21.82346 | 120° | 49km/h | 11496m | -20.2m/s | -48.7°C | 1.6% | 0hPa | 0V | 08:23:00 | 00:00:00 | 00:00:00 | |
| DL9RDZ-1 | 2026-09-01 00:55:25 | 63.78262 | -21.82601 | 114° | 46km/h | 11714m | -20.7m/s | -47.3°C | 1.3% | 0hPa | 0V | 08:23:00 | 00:00:00 | 00:00:00 | |
| DL9RDZ-1 | 2026-09-01 00:55:14 | 63.78304 | -21.82847 | 106° | 38km/h | 11949m | -23.9m/s | -46.3°C | 1.2% | 0hPa | 0V | 08:23:00 | 00:00:00 | 00:00:00 | |
| DL9RDZ-1 | 2026-09-01 00:55:05 | 63.78331 | -21.83082 | 103° | 44km/h | 12169m | -22.4m/s | -45.8°C | 1.2% | 0hPa | 0V | 08:23:00 | 00:00:00 | 00:00:00 | |
| DL9RDZ-1 | 2026-09-01 00:54:53 | 63.78357 | -21.83337 | 109° | 44km/h | 12422m | -24.3m/s | -45.7°C | 1.1% | 0hPa | 0V | 08:24:00 | 00:00:00 | 00:00:00 | |
| DL9RDZ-1 | 2026-09-01 00:54:42 | 63.78388 | -21.83548 | 111° | 29km/h | 12691m | -25.6m/s | -44.8°C | 1.0% | 0hPa | 0V | 08:24:00 | 00:00:00 | 00:00:00 | |
| DL9RDZ-1 | 2026-09-01 00:54:32 | 63.78411 | -21.83695 | 100° | 31km/h | 12935m | -24.9m/s | -45.7°C | 1.1% | 0hPa | 0V | 08:24:00 | 00:00:00 | 00:00:00 | |
| DL9RDZ-1 | 2026-09-01 00:54:21 | 63.78409 | -21.83924 | 93° | 31km/h | 13200m | -22.7m/s | -45.5°C | 1.1% | 0hPa | 0V | 08:24:00 | 00:00:00 | 00:00:00 | |
| DL9RDZ-1 | 2026-09-01 00:54:10 | 63.78410 | -21.84126 | 88° | 33km/h | 13489m | -25.8m/s | -45.3°C | 1.0% | 0hPa | 0V | 08:24:00 | 00:00:00 | 00:00:00 | |
| DL9RDZ-1 | 2026-09-01 00:54:00 | 63.78408 | -21.84327 | 95° | 31km/h | 13754m | -27.8m/s | -46.1°C | 1.1% | 0hPa | 0V | 08:24:00 | 00:00:00 | 00:00:00 | |
| DL9RDZ-1 | 2026-09-01 00:53:50 | 63.78405 | -21.84473 | 85° | 31km/h | 14032m | -29.3m/s | -46.2°C | 1.1% | 0hPa | 0V | 08:24:00 | 00:00:00 | 00:00:00 | |
| DL9RDZ-1 | 2026-09-01 00:53:40 | 63.78391 | -21.84665 | 82° | 38km/h | 14316m | -28.1m/s | -45.8°C | 1.0% | 0hPa | 0V | 08:24:00 | 00:00:00 | 00:00:00 | |
| DL9RDZ-1 | 2026-09-01 00:53:29 | 63.78395 | -21.84904 | 100° | 31km/h | 14610m | -28.4m/s | -45.5°C | 1.0% | 0hPa | 0V | 08:24:00 | 00:00:00 | 00:00:00 | |
| DL9RDZ-1 | 2026-09-01 00:53:19 | 63.78390 | -21.85079 | 78° | 35km/h | 14895m | -29.5m/s | -45.7°C | 0.9% | 0hPa | 0V | 08:24:00 | 00:00:00 | 00:00:00 | |
| DL9RDZ-1 | 2026-09-01 00:53:08 | 63.78378 | -21.85266 | 89° | 24km/h | 15217m | -29.8m/s | -44.9°C | 0.8% | 0hPa | 0V | 08:25:00 | 00:00:00 | 00:00:00 | |
| DL9RDZ-1 | 2026-09-01 00:52:58 | 63.78373 | -21.85404 | 93° | 31km/h | 15497m | -29.6m/s | -46.0°C | 0.9% | 0hPa | 0V | 08:25:00 | 00:00:00 | 00:00:00 | |
| DL9RDZ-1 | 2026-09-01 00:52:47 | 63.78380 | -21.85592 | 90° | 24km/h | 15821m | -31.1m/s | -46.5°C | 0.9% | 0hPa | 0V | 08:25:00 | 00:00:00 | 00:00:00 | |
| DL9RDZ-1 | 2026-09-01 00:52:36 | 63.78376 | -21.85764 | 94° | 22km/h | 16152m | -30.6m/s | -45.7°C | 0.9% | 0hPa | 0V | 08:25:00 | 00:00:00 | 00:00:00 | |
| DL9RDZ-1 | 2026-09-01 00:52:26 | 63.78352 | -21.85890 | 52° | 29km/h | 16487m | -32.1m/s | -45.9°C | 0.9% | 0hPa | 0V | 08:25:00 | 00:00:00 | 00:00:00 | |
| DL9RDZ-1 | 2026-09-01 00:52:16 | 63.78322 | -21.86077 | 80° | 35km/h | 16812m | -35.7m/s | -46.3°C | 0.8% | 0hPa | 0V | 08:26:00 | 00:00:00 | 00:00:00 | |
| DL9RDZ-1 | 2026-09-01 00:52:00 | 63.78306 | -21.86329 | 73° | 20km/h | 17369m | -33.8m/s | -46.8°C | 0.9% | 0hPa | 0V | 08:26:00 | 00:00:00 | 00:00:00 | |
| DL9RDZ-1 | 2026-09-01 00:51:34 | 63.78254 | -21.86657 | 84° | 27km/h | 18222m | -34.1m/s | -47.1°C | 0.9% | 0hPa | 0V | 08:26:00 | 00:00:00 | 00:00:00 | |
| DL9RDZ-1 | 2026-09-01 00:51:23 | 63.78229 | -21.86804 | 56° | 29km/h | 18616m | -35.5m/s | -47.0°C | 0.9% | 0hPa | 0V | 08:27:00 | 00:00:00 | 00:00:00 | |
| DL9RDZ-1 | 2026-09-01 00:51:12 | 63.78196 | -21.86963 | 91° | 26km/h | 18998m | -36.8m/s | -47.6°C | 0.9% | 0hPa | 0V | 08:27:00 | 00:00:00 | 00:00:00 | |
| DL9RDZ-1 | 2026-09-01 00:51:02 | 63.78187 | -21.87074 | 56° | 18km/h | 19428m | -42.1m/s | -46.6°C | 0.8% | 0hPa | 0V | 08:27:00 | 00:00:00 | 00:00:00 | |
| DL9RDZ-1 | 2026-09-01 00:50:50 | 63.78159 | -21.87187 | 68° | 26km/h | 19888m | -43.0m/s | -47.1°C | 0.8% | 0hPa | 0V | 08:27:00 | 00:00:00 | 00:00:00 | |
| DL9RDZ-1 | 2026-09-01 00:50:40 | 63.78132 | -21.87282 | 41° | 18km/h | 20307m | -41.8m/s | -47.5°C | 0.8% | 0hPa | 0V | 08:28:00 | 00:00:00 | 00:00:00 | |
| DL9RDZ-1 | 2026-09-01 00:50:29 | 63.78093 | -21.87410 | 71° | 24km/h | 20761m | -44.2m/s | -47.4°C | 0.8% | 0hPa | 0V | 08:28:00 | 00:00:00 | 00:00:00 | |
| DL9RDZ-1 | 2026-09-01 00:50:18 | 63.78090 | -21.87564 | 92° | 16km/h | 21316m | -46.7m/s | -48.0°C | 0.9% | 0hPa | 0V | 08:28:00 | 00:00:00 | 00:00:00 | |
| DL9RDZ-1 | 2026-09-01 00:50:07 | 63.78052 | -21.87652 | 43° | 31km/h | 21768m | -44.4m/s | -47.1°C | 0.8% | 0hPa | 0V | 08:28:00 | 00:00:00 | 00:00:00 | |
| DL9RDZ-1 | 2026-09-01 00:49:56 | 63.78007 | -21.87812 | 66° | 31km/h | 22295m | -50.5m/s | -46.5°C | 0.8% | 0hPa | 0V | 08:28:00 | 00:00:00 | 00:00:00 | |
| DL9RDZ-1 | 2026-09-01 00:49:46 | 63.77969 | -21.87970 | 67° | 27km/h | 22807m | -54.6m/s | -46.6°C | 0.8% | 0hPa | 0V | 08:29:00 | 00:00:00 | 00:00:00 | |
| DL9RDZ-1 | 2026-09-01 00:49:36 | 63.77942 | -21.88117 | 67° | 26km/h | 23359m | -57.0m/s | -45.5°C | 0.7% | 0hPa | 0V | 08:29:00 | 00:00:00 | 00:00:00 | |
| DL9RDZ-1 | 2026-09-01 00:49:26 | 63.77928 | -21.88231 | 74° | 13km/h | 23908m | -55.8m/s | -45.5°C | 0.7% | 0hPa | 0V | 08:29:00 | 00:00:00 | 00:00:00 | |
| DL9RDZ-1 | 2026-09-01 00:49:15 | 63.77909 | -21.88310 | 81° | 15km/h | 24524m | -58.0m/s | -46.2°C | 0.7% | 0hPa | 0V | 08:29:00 | 00:00:00 | 00:00:00 | |
| DL9RDZ-1 | 2026-09-01 00:49:04 | 63.77889 | -21.88396 | 46° | 20km/h | 25167m | -60.1m/s | -45.8°C | 0.7% | 0hPa | 0V | 08:29:00 | 00:00:00 | 00:00:00 | |
| DL9RDZ-1 | 2026-09-01 00:48:53 | 63.77871 | -21.88482 | 84° | 5km/h | 25825m | -60.6m/s | -46.7°C | 0.8% | 0hPa | 0V | 08:29:00 | 00:00:00 | 00:00:00 | |
| DL9RDZ-1 | 2026-09-01 00:48:43 | 63.77844 | -21.88537 | 61° | 13km/h | 26517m | -67.7m/s | -46.0°C | 0.7% | 0hPa | 0V | 08:29:00 | 00:00:00 | 00:00:00 | |
| DL9RDZ-1 | 2026-09-01 00:48:31 | 63.77827 | -21.88585 | 39° | 9km/h | 27266m | -72.3m/s | -46.7°C | 0.8% | 0hPa | 0V | 08:29:00 | 00:00:00 | 00:00:00 | |
| DL9RDZ-1 | 2026-09-01 00:48:20 | 63.77812 | -21.88601 | 335° | 4km/h | 28073m | -73.9m/s | -45.0°C | 0.7% | 0hPa | 0V | 08:29:00 | 00:00:00 | 00:00:00 | |
| DL9RDZ-1 | 2026-09-01 00:48:11 | 63.77798 | -21.88573 | 335° | 9km/h | 28813m | -75.9m/s | -44.7°C | 0.7% | 0hPa | 0V | 08:29:00 | 00:00:00 | 00:00:00 | |
| DL9RDZ-1 | 2026-09-01 00:47:59 | 63.77777 | -21.88563 | 47° | 5km/h | 29679m | -79.8m/s | -44.0°C | 0.6% | 0hPa | 0V | 00:00:00 | 00:00:00 | 00:00:00 | |
| DL9RDZ-1 | 2026-09-01 00:47:48 | 63.77783 | -21.88562 | 221° | 11km/h | 30476m | -59.5m/s | -43.8°C | 0.6% | 0hPa | 0V | 00:00:00 | 00:00:00 | 00:00:00 | |
| DL9RDZ-1 | 2026-09-01 00:47:37 | 63.77794 | -21.88471 | 269° | 20km/h | 30847m | 8.9m/s | -44.8°C | 0.6% | 0hPa | 0V | 00:00:00 | 00:00:00 | 00:00:00 | |
| DL9RDZ-1 | 2026-09-01 00:47:27 | 63.77805 | -21.88393 | 275° | 15km/h | 30788m | 4.9m/s | -44.7°C | 0.6% | 0hPa | 0V | 00:00:00 | 00:00:00 | 00:00:00 | |
| DL9RDZ-1 | 2026-09-01 00:47:16 | 63.77811 | -21.88314 | 246° | 5km/h | 30724m | 5.9m/s | -45.0°C | 0.6% | 0hPa | 0V | 00:00:00 | 00:00:00 | 00:00:00 | |
| DL9RDZ-1 | 2026-09-01 00:47:06 | 63.77831 | -21.88261 | 239° | 15km/h | 30666m | 6.5m/s | -45.2°C | 0.6% | 0hPa | 0V | 00:00:00 | 00:00:00 | 00:00:00 | |
| DL9RDZ-1 | 2026-09-01 00:46:55 | 63.77857 | -21.88190 | 232° | 16km/h | 30603m | 6.5m/s | -45.1°C | 0.6% | 0hPa | 0V | 00:00:00 | 00:00:00 | 00:00:00 | |
| DL9RDZ-1 | 2026-09-01 00:46:44 | 63.77888 | -21.88190 | 173° | 20km/h | 30539m | 5.5m/s | -45.0°C | 0.6% | 0hPa | 0V | 00:00:00 | 00:00:00 | 00:00:00 | |
| DL9RDZ-1 | 2026-09-01 00:46:33 | 63.77905 | -21.88210 | 113° | 16km/h | 30472m | 6.0m/s | -45.2°C | 0.6% | 0hPa | 0V | 00:00:00 | 00:00:00 | 00:00:00 | |
| DL9RDZ-1 | 2026-09-01 00:46:23 | 63.77922 | -21.88250 | 123° | 7km/h | 30412m | 5.2m/s | -45.5°C | 0.6% | 0hPa | 0V | 00:00:00 | 00:00:00 | 00:00:00 | |
| DL9RDZ-1 | 2026-09-01 00:46:12 | 63.77924 | -21.88325 | 64° | 15km/h | 30347m | 5.6m/s | -46.1°C | 0.7% | 0hPa | 0V | 00:00:00 | 00:00:00 | 00:00:00 | |
| DL9RDZ-1 | 2026-09-01 00:46:02 | 63.77911 | -21.88390 | 23° | 11km/h | 30288m | 6.5m/s | -46.0°C | 0.7% | 0hPa | 0V | 00:00:00 | 00:00:00 | 00:00:00 | |
| DL9RDZ-1 | 2026-09-01 00:45:52 | 63.77888 | -21.88425 | 11° | 7km/h | 30229m | 5.6m/s | -46.0°C | 0.7% | 0hPa | 0V | 00:00:00 | 00:00:00 | 00:00:00 | |
| DL9RDZ-1 | 2026-09-01 00:45:41 | 63.77856 | -21.88441 | 20° | 18km/h | 30163m | 5.7m/s | -45.9°C | 0.7% | 0hPa | 0V | 00:00:00 | 00:00:00 | 00:00:00 | |
| DL9RDZ-1 | 2026-09-01 00:45:32 | 63.77820 | -21.88440 | 333° | 15km/h | 30104m | 5.8m/s | -45.8°C | 0.7% | 0hPa | 0V | 00:00:00 | 00:00:00 | 00:00:00 | |
| DL9RDZ-1 | 2026-09-01 00:45:21 | 63.77780 | -21.88419 | 334° | 16km/h | 30043m | 6.1m/s | -45.8°C | 0.6% | 0hPa | 0V | 00:00:00 | 00:00:00 | 00:00:00 | |
| DL9RDZ-1 | 2026-09-01 00:45:10 | 63.77745 | -21.88398 | 26° | 15km/h | 29978m | 5.0m/s | -45.7°C | 0.7% | 0hPa | 0V | 00:00:00 | 00:00:00 | 00:00:00 | |
| DL9RDZ-1 | 2026-09-01 00:45:00 | 63.77713 | -21.88387 | 313° | 16km/h | 29921m | 6.1m/s | -45.5°C | 0.6% | 0hPa | 0V | 00:00:00 | 00:00:00 | 00:00:00 | |
| DL9RDZ-1 | 2026-09-01 00:44:49 | 63.77686 | -21.88396 | 306° | 11km/h | 29858m | 6.8m/s | -45.5°C | 0.6% | 0hPa | 0V | 00:00:00 | 00:00:00 | 00:00:00 | |
| DL9RDZ-1 | 2026-09-01 00:44:39 | 63.77671 | -21.88390 | 40° | 11km/h | 29802m | 5.4m/s | -45.5°C | 0.6% | 0hPa | 0V | 00:00:00 | 00:00:00 | 00:00:00 | |
| DL9RDZ-1 | 2026-09-01 00:44:28 | 63.77650 | -21.88403 | 87° | 13km/h | 29739m | 6.3m/s | -46.1°C | 0.7% | 0hPa | 0V | 00:00:00 | 00:00:00 | 00:00:00 | |
| DL9RDZ-1 | 2026-09-01 00:44:17 | 63.77626 | -21.88444 | 25° | 16km/h | 29680m | 6.3m/s | -46.5°C | 0.7% | 0hPa | 0V | 00:00:00 | 00:00:00 | 00:00:00 | |
| DL9RDZ-1 | 2026-09-01 00:44:06 | 63.77585 | -21.88511 | 10° | 15km/h | 29620m | 5.9m/s | -46.7°C | 0.7% | 0hPa | 0V | 00:00:00 | 00:00:00 | 00:00:00 | |
| DL9RDZ-1 | 2026-09-01 00:43:56 | 63.77532 | -21.88537 | 22° | 20km/h | 29566m | 5.6m/s | -46.9°C | 0.7% | 0hPa | 0V | 00:00:00 | 00:00:00 | 00:00:00 | |
| DL9RDZ-1 | 2026-09-01 00:43:45 | 63.77456 | -21.88523 | 358° | 31km/h | 29506m | 6.2m/s | -46.8°C | 0.7% | 0hPa | 0V | 00:00:00 | 00:00:00 | 00:00:00 | |
| DL9RDZ-1 | 2026-09-01 00:43:34 | 63.77391 | -21.88498 | 338° | 27km/h | 29444m | 5.9m/s | -46.9°C | 0.7% | 0hPa | 0V | 00:00:00 | 00:00:00 | 00:00:00 | |
| DL9RDZ-1 | 2026-09-01 00:43:24 | 63.77336 | -21.88452 | 331° | 27km/h | 29391m | 6.4m/s | -46.8°C | 0.7% | 0hPa | 0V | 00:00:00 | 00:00:00 | 00:00:00 | |
| DL9RDZ-1 | 2026-09-01 00:43:13 | 63.77295 | -21.88349 | 313° | 9km/h | 29328m | 6.4m/s | -46.6°C | 0.7% | 0hPa | 0V | 00:00:00 | 00:00:00 | 00:00:00 | |
| DL9RDZ-1 | 2026-09-01 00:43:02 | 63.77257 | -21.88257 | 290° | 15km/h | 29267m | 6.7m/s | -46.3°C | 0.7% | 0hPa | 0V | 00:00:00 | 00:00:00 | 00:00:00 | |
| DL9RDZ-1 | 2026-09-01 00:42:51 | 63.77250 | -21.88186 | 274° | 22km/h | 29205m | 4.9m/s | -46.7°C | 0.7% | 0hPa | 0V | 00:00:00 | 00:00:00 | 00:00:00 | |
| DL9RDZ-1 | 2026-09-01 00:42:47 | 63.77251 | -21.88136 | 0° | 0km/h | 29141m | 5.4m/s | -46.8°C | 0.7% | 0hPa | 0V | 00:00:00 | 00:00:00 | 00:00:00 | |
| DL9RDZ-1 | 2026-09-01 00:42:29 | 63.77253 | -21.88126 | 177° | 2km/h | 29079m | 5.3m/s | -46.8°C | 0.7% | 0hPa | 0V | 00:00:00 | 00:00:00 | 00:00:00 | |
| DL9RDZ-1 | 2026-09-01 00:42:18 | 63.77252 | -21.88147 | 17° | 9km/h | 29015m | 6.2m/s | -46.6°C | 0.7% | 0hPa | 0V | 00:00:00 | 00:00:00 | 00:00:00 | |
| DL9RDZ-1 | 2026-09-01 00:42:08 | 63.77234 | -21.88160 | 15° | 7km/h | 28958m | 6.2m/s | -46.6°C | 0.7% | 0hPa | 0V | 00:00:00 | 00:00:00 | 00:00:00 | |
| DL9RDZ-1 | 2026-09-01 00:41:57 | 63.77201 | -21.88157 | 6° | 9km/h | 28898m | 5.7m/s | -46.9°C | 0.7% | 0hPa | 0V | 00:00:00 | 00:00:00 | 00:00:00 | |
| DL9RDZ-1 | 2026-09-01 00:41:47 | 63.77159 | -21.88125 | 319° | 22km/h | 28836m | 5.6m/s | -47.1°C | 0.7% | 0hPa | 0V | 00:00:00 | 00:00:00 | 00:00:00 | |
| DL9RDZ-1 | 2026-09-01 00:41:35 | 63.77127 | -21.88080 | 331° | 16km/h | 28772m | 6.7m/s | -47.3°C | 0.8% | 0hPa | 0V | 00:00:00 | 00:00:00 | 00:00:00 | |
| DL9RDZ-1 | 2026-09-01 00:41:24 | 63.77099 | -21.87998 | 292° | 13km/h | 28706m | 6.6m/s | -47.1°C | 0.7% | 0hPa | 0V | 00:00:00 | 00:00:00 | 00:00:00 | |
| DL9RDZ-1 | 2026-09-01 00:41:14 | 63.77078 | -21.87919 | 289° | 11km/h | 28647m | 6.9m/s | -47.1°C | 0.7% | 0hPa | 0V | 00:00:00 | 00:00:00 | 00:00:00 | |
| DL9RDZ-1 | 2026-09-01 00:41:05 | 63.77077 | -21.87861 | 282° | 16km/h | 28588m | 5.9m/s | -46.7°C | 0.7% | 0hPa | 0V | 00:00:00 | 00:00:00 | 00:00:00 | |
| DL9RDZ-1 | 2026-09-01 00:40:53 | 63.77084 | -21.87794 | 249° | 11km/h | 28523m | 7.0m/s | -46.6°C | 0.7% | 0hPa | 0V | 00:00:00 | 00:00:00 | 00:00:00 | |
| DL9RDZ-1 | 2026-09-01 00:40:43 | 63.77087 | -21.87732 | 183° | 13km/h | 28464m | 5.9m/s | -46.5°C | 0.7% | 0hPa | 0V | 00:00:00 | 00:00:00 | 00:00:00 | |
| DL9RDZ-1 | 2026-09-01 00:40:33 | 63.77089 | -21.87709 | 21° | 4km/h | 28406m | 5.6m/s | -46.4°C | 0.7% | 0hPa | 0V | 00:00:00 | 00:00:00 | 00:00:00 | |
| DL9RDZ-1 | 2026-09-01 00:40:22 | 63.77095 | -21.87730 | 297° | 7km/h | 28339m | 5.3m/s | -46.3°C | 0.7% | 0hPa | 0V | 00:00:00 | 00:00:00 | 00:00:00 | |
| DL9RDZ-1 | 2026-09-01 00:40:11 | 63.77099 | -21.87749 | 54° | 5km/h | 28272m | 7.2m/s | -46.5°C | 0.7% | 0hPa | 0V | 00:00:00 | 00:00:00 | 00:00:00 | |
| DL9RDZ-1 | 2026-09-01 00:40:01 | 63.77093 | -21.87773 | 148° | 7km/h | 28214m | 5.1m/s | -46.6°C | 0.7% | 0hPa | 0V | 00:00:00 | 00:00:00 | 00:00:00 | |
| DL9RDZ-1 | 2026-09-01 00:39:50 | 63.77090 | -21.87794 | 81° | 11km/h | 28149m | 5.3m/s | -46.7°C | 0.7% | 0hPa | 0V | 00:00:00 | 00:00:00 | 00:00:00 | |
| DL9RDZ-1 | 2026-09-01 00:39:40 | 63.77085 | -21.87843 | 0° | 0km/h | 28094m | 5.2m/s | -47.0°C | 0.7% | 0hPa | 0V | 00:00:00 | 00:00:00 | 00:00:00 | |
| DL9RDZ-1 | 2026-09-01 00:39:19 | 63.77040 | -21.87927 | 81° | 18km/h | 27975m | 5.4m/s | -47.2°C | 0.7% | 0hPa | 0V | 00:00:00 | 00:00:00 | 00:00:00 | |
| DL9RDZ-1 | 2026-09-01 00:39:09 | 63.77030 | -21.87963 | 301° | 7km/h | 27918m | 4.6m/s | -47.6°C | 0.8% | 0hPa | 0V | 00:00:00 | 00:00:00 | 00:00:00 | |
| DL9RDZ-1 | 2026-09-01 00:38:58 | 63.77031 | -21.87993 | 61° | 9km/h | 27857m | 5.5m/s | -47.6°C | 0.7% | 0hPa | 0V | 00:00:00 | 00:00:00 | 00:00:00 | |
| DL9RDZ-1 | 2026-09-01 00:38:47 | 63.77017 | -21.88044 | 57° | 15km/h | 27794m | 5.2m/s | -47.6°C | 0.8% | 0hPa | 0V | 00:00:00 | 00:00:00 | 00:00:00 | |
| DL9RDZ-1 | 2026-09-01 00:38:37 | 63.76995 | -21.88086 | 51° | 18km/h | 27737m | 5.6m/s | -47.6°C | 0.8% | 0hPa | 0V | 00:00:00 | 00:00:00 | 00:00:00 | |
| DL9RDZ-1 | 2026-09-01 00:38:27 | 63.76967 | -21.88145 | 26° | 9km/h | 27672m | 6.3m/s | -47.5°C | 0.8% | 0hPa | 0V | 00:00:00 | 00:00:00 | 00:00:00 | |
| DL9RDZ-1 | 2026-09-01 00:38:16 | 63.76940 | -21.88218 | 43° | 13km/h | 27613m | 6.1m/s | -47.4°C | 0.8% | 0hPa | 0V | 00:00:00 | 00:00:00 | 00:00:00 | |
| DL9RDZ-1 | 2026-09-01 00:38:05 | 63.76919 | -21.88269 | 74° | 24km/h | 27550m | 4.0m/s | -47.6°C | 0.7% | 0hPa | 0V | 00:00:00 | 00:00:00 | 00:00:00 | |
| DL9RDZ-1 | 2026-09-01 00:37:54 | 63.76894 | -21.88317 | 50° | 15km/h | 27486m | 6.1m/s | -48.2°C | 0.8% | 0hPa | 0V | 00:00:00 | 00:00:00 | 00:00:00 | |
| DL9RDZ-1 | 2026-09-01 00:37:43 | 63.76868 | -21.88401 | 44° | 4km/h | 27422m | 6.4m/s | -48.6°C | 0.8% | 0hPa | 0V | 00:00:00 | 00:00:00 | 00:00:00 | |
| DL9RDZ-1 | 2026-09-01 00:37:32 | 63.76845 | -21.88470 | 67° | 11km/h | 27359m | 5.1m/s | -48.7°C | 0.8% | 0hPa | 0V | 00:00:00 | 00:00:00 | 00:00:00 | |
| DL9RDZ-1 | 2026-09-01 00:37:22 | 63.76830 | -21.88508 | 38° | 18km/h | 27301m | 5.2m/s | -49.0°C | 0.8% | 0hPa | 0V | 00:00:00 | 00:00:00 | 00:00:00 | |
| DL9RDZ-1 | 2026-09-01 00:37:11 | 63.76797 | -21.88568 | 36° | 15km/h | 27236m | 5.3m/s | -49.1°C | 0.8% | 0hPa | 0V | 00:00:00 | 00:00:00 | 00:00:00 | |
| DL9RDZ-1 | 2026-09-01 00:37:01 | 63.76769 | -21.88623 | 2° | 9km/h | 27180m | 4.4m/s | -49.1°C | 0.8% | 0hPa | 0V | 00:00:00 | 00:00:00 | 00:00:00 | |
| DL9RDZ-1 | 2026-09-01 00:36:50 | 63.76759 | -21.88620 | 52° | 2km/h | 27117m | 5.4m/s | -49.3°C | 0.9% | 0hPa | 0V | 00:00:00 | 00:00:00 | 00:00:00 | |
| DL9RDZ-1 | 2026-09-01 00:36:39 | 63.76736 | -21.88637 | 11° | 11km/h | 27052m | 6.4m/s | -49.0°C | 0.8% | 0hPa | 0V | 00:00:00 | 00:00:00 | 00:00:00 | |
| DL9RDZ-1 | 2026-09-01 00:36:29 | 63.76717 | -21.88667 | 321° | 4km/h | 26993m | 6.0m/s | -48.6°C | 0.8% | 0hPa | 0V | 00:00:00 | 00:00:00 | 00:00:00 | |
| DL9RDZ-1 | 2026-09-01 00:36:17 | 63.76708 | -21.88713 | 98° | 15km/h | 26923m | 6.1m/s | -48.3°C | 0.8% | 0hPa | 0V | 00:00:00 | 00:00:00 | 00:00:00 | |
| DL9RDZ-1 | 2026-09-01 00:36:06 | 63.76712 | -21.88750 | 111° | 15km/h | 26860m | 5.2m/s | -48.2°C | 0.8% | 0hPa | 0V | 00:00:00 | 00:00:00 | 00:00:00 | |
| DL9RDZ-1 | 2026-09-01 00:35:54 | 63.76711 | -21.88836 | 83° | 11km/h | 26790m | 5.9m/s | -48.0°C | 0.8% | 0hPa | 0V | 00:00:00 | 00:00:00 | 00:00:00 | |
| DL9RDZ-1 | 2026-09-01 00:35:43 | 63.76706 | -21.88923 | 37° | 11km/h | 26726m | 6.2m/s | -47.8°C | 0.8% | 0hPa | 0V | 00:00:00 | 00:00:00 | 00:00:00 | |
| DL9RDZ-1 | 2026-09-01 00:35:32 | 63.76699 | -21.89026 | 73° | 16km/h | 26665m | 5.1m/s | -47.9°C | 0.8% | 0hPa | 0V | 00:00:00 | 00:00:00 | 00:00:00 | |
| DL9RDZ-1 | 2026-09-01 00:35:22 | 63.76680 | -21.89096 | 83° | 18km/h | 26610m | 4.5m/s | -47.5°C | 0.8% | 0hPa | 0V | 00:00:00 | 00:00:00 | 00:00:00 | |
| DL9RDZ-1 | 2026-09-01 00:35:12 | 63.76649 | -21.89175 | 44° | 24km/h | 26554m | 5.2m/s | -47.4°C | 0.8% | 0hPa | 0V | 00:00:00 | 00:00:00 | 00:00:00 | |
| DL9RDZ-1 | 2026-09-01 00:35:01 | 63.76602 | -21.89258 | 37° | 29km/h | 26493m | 6.1m/s | -47.6°C | 0.8% | 0hPa | 0V | 00:00:00 | 00:00:00 | 00:00:00 | |
| DL9RDZ-1 | 2026-09-01 00:34:50 | 63.76546 | -21.89369 | 20° | 24km/h | 26432m | 4.9m/s | -47.7°C | 0.8% | 0hPa | 0V | 00:00:00 | 00:00:00 | 00:00:00 | |
| DL9RDZ-1 | 2026-09-01 00:31:36 | 63.76175 | -21.90726 | 34° | 29km/h | 25343m | 4.9m/s | -47.9°C | 0.8% | 0hPa | 0V | 00:00:00 | 00:00:00 | 00:00:00 | |
| DL9RDZ-1 | 2026-09-01 00:31:25 | 63.76107 | -21.90825 | 58° | 22km/h | 25281m | 6.2m/s | -47.5°C | 0.8% | 0hPa | 0V | 00:00:00 | 00:00:00 | 00:00:00 | |
| DL9RDZ-1 | 2026-09-01 00:31:14 | 63.76051 | -21.90926 | 57° | 22km/h | 25219m | 5.6m/s | -47.6°C | 0.8% | 0hPa | 0V | 00:00:00 | 00:00:00 | 00:00:00 | |
| DL9RDZ-1 | 2026-09-01 00:30:36 | 63.75993 | -21.91385 | 112° | 22km/h | 25005m | 5.2m/s | -47.8°C | 0.8% | 0hPa | 0V | 00:00:00 | 00:00:00 | 00:00:00 | |
| DL9RDZ-1 | 2026-09-01 00:30:25 | 63.75995 | -21.91504 | 99° | 22km/h | 24942m | 5.8m/s | -47.6°C | 0.8% | 0hPa | 0V | 00:00:00 | 00:00:00 | 00:00:00 | |
| DL9RDZ-1 | 2026-09-01 00:30:13 | 63.76010 | -21.91623 | 136° | 20km/h | 24873m | 4.7m/s | -47.9°C | 0.8% | 0hPa | 0V | 00:00:00 | 00:00:00 | 00:00:00 | |
| DL9RDZ-1 | 2026-09-01 00:29:52 | 63.76052 | -21.91845 | 104° | 18km/h | 24756m | 5.6m/s | -48.0°C | 0.8% | 0hPa | 0V | 00:00:00 | 00:00:00 | 00:00:00 | |
| DL9RDZ-1 | 2026-09-01 00:29:41 | 63.76063 | -21.91985 | 93° | 20km/h | 24694m | 4.2m/s | -48.0°C | 0.9% | 0hPa | 0V | 00:00:00 | 00:00:00 | 00:00:00 | |
| DL9RDZ-1 | 2026-09-01 00:29:32 | 63.76051 | -21.92115 | 96° | 26km/h | 24638m | 5.1m/s | -48.0°C | 0.8% | 0hPa | 0V | 00:00:00 | 00:00:00 | 00:00:00 | |
| DL9RDZ-1 | 2026-09-01 00:29:21 | 63.76031 | -21.92249 | 48° | 26km/h | 24584m | 5.0m/s | -48.2°C | 0.9% | 0hPa | 0V | 00:00:00 | 00:00:00 | 00:00:00 | |
| DL9RDZ-1 | 2026-09-01 00:28:59 | 63.75964 | -21.92491 | 70° | 20km/h | 24462m | 5.2m/s | -48.1°C | 0.9% | 0hPa | 0V | 00:00:00 | 00:00:00 | 00:00:00 | |
| DL9RDZ-1 | 2026-09-01 00:28:48 | 63.75908 | -21.92574 | 36° | 24km/h | 24401m | 5.9m/s | -47.9°C | 0.9% | 0hPa | 0V | 00:00:00 | 00:00:00 | 00:00:00 | |
| DL9RDZ-1 | 2026-09-01 00:28:38 | 63.75854 | -21.92621 | 23° | 16km/h | 24347m | 6.0m/s | -47.4°C | 0.8% | 0hPa | 0V | 00:00:00 | 00:00:00 | 00:00:00 | |
| DL9RDZ-1 | 2026-09-01 00:28:27 | 63.75810 | -21.92683 | 360° | 20km/h | 24285m | 3.9m/s | -47.0°C | 0.8% | 0hPa | 0V | 00:00:00 | 00:00:00 | 00:00:00 | |
| DL9RDZ-1 | 2026-09-01 00:28:17 | 63.75785 | -21.92729 | 43° | 18km/h | 24231m | 4.7m/s | -46.7°C | 0.8% | 0hPa | 0V | 00:00:00 | 00:00:00 | 00:00:00 | |
| DL9RDZ-1 | 2026-09-01 00:28:06 | 63.75751 | -21.92748 | 27° | 9km/h | 24171m | 6.1m/s | -46.6°C | 0.8% | 0hPa | 0V | 00:00:00 | 00:00:00 | 00:00:00 | |
| DL9RDZ-1 | 2026-09-01 00:27:55 | 63.75737 | -21.92783 | 63° | 7km/h | 24108m | 6.0m/s | -46.4°C | 0.8% | 0hPa | 0V | 00:00:00 | 00:00:00 | 00:00:00 | |
| DL9RDZ-1 | 2026-09-01 00:27:44 | 63.75735 | -21.92860 | 106° | 15km/h | 24046m | 6.8m/s | -46.4°C | 0.8% | 0hPa | 0V | 00:00:00 | 00:00:00 | 00:00:00 | |
| DL9RDZ-1 | 2026-09-01 00:27:33 | 63.75743 | -21.92975 | 110° | 20km/h | 23985m | 4.9m/s | -46.5°C | 0.8% | 0hPa | 0V | 00:00:00 | 00:00:00 | 00:00:00 | |
| DL9RDZ-1 | 2026-09-01 00:27:23 | 63.75757 | -21.93110 | 88° | 24km/h | 23932m | 4.3m/s | -46.7°C | 0.8% | 0hPa | 0V | 00:00:00 | 00:00:00 | 00:00:00 | |
| DL9RDZ-1 | 2026-09-01 00:27:12 | 63.75764 | -21.93216 | 73° | 22km/h | 23872m | 5.0m/s | -46.6°C | 0.8% | 0hPa | 0V | 00:00:00 | 00:00:00 | 00:00:00 | |
| DL9RDZ-1 | 2026-09-01 00:27:02 | 63.75756 | -21.93330 | 96° | 20km/h | 23820m | 4.5m/s | -46.5°C | 0.8% | 0hPa | 0V | 00:00:00 | 00:00:00 | 00:00:00 | |
| DL9RDZ-1 | 2026-09-01 00:26:51 | 63.75746 | -21.93510 | 89° | 31km/h | 23759m | 5.4m/s | -46.6°C | 0.8% | 0hPa | 0V | 00:00:00 | 00:00:00 | 00:00:00 | |
| DL9RDZ-1 | 2026-09-01 00:26:40 | 63.75735 | -21.93692 | 86° | 29km/h | 23699m | 5.4m/s | -46.6°C | 0.8% | 0hPa | 0V | 00:00:00 | 00:00:00 | 00:00:00 | |
| DL9RDZ-1 | 2026-09-01 00:26:29 | 63.75716 | -21.93884 | 68° | 29km/h | 23642m | 5.3m/s | -46.6°C | 0.8% | 0hPa | 0V | 00:00:00 | 00:00:00 | 00:00:00 | |
| DL9RDZ-1 | 2026-09-01 00:26:19 | 63.75686 | -21.94042 | 63° | 31km/h | 23588m | 6.4m/s | -46.7°C | 0.8% | 0hPa | 0V | 00:00:00 | 00:00:00 | 00:00:00 | |
| DL9RDZ-1 | 2026-09-01 00:26:08 | 63.75641 | -21.94170 | 47° | 27km/h | 23528m | 5.4m/s | -46.7°C | 0.8% | 0hPa | 0V | 00:00:00 | 00:00:00 | 00:00:00 | |
| DL9RDZ-1 | 2026-09-01 00:25:57 | 63.75595 | -21.94297 | 61° | 26km/h | 23471m | 4.3m/s | -46.8°C | 0.8% | 0hPa | 0V | 00:00:00 | 00:00:00 | 00:00:00 | |
| DL9RDZ-1 | 2026-09-01 00:25:47 | 63.75563 | -21.94430 | 47° | 26km/h | 23417m | 6.3m/s | -46.6°C | 0.8% | 0hPa | 0V | 00:00:00 | 00:00:00 | 00:00:00 | |
| DL9RDZ-1 | 2026-09-01 00:25:36 | 63.75523 | -21.94572 | 62° | 26km/h | 23358m | 5.9m/s | -46.4°C | 0.8% | 0hPa | 0V | 00:00:00 | 00:00:00 | 00:00:00 | |
| DL9RDZ-1 | 2026-09-01 00:25:25 | 63.75491 | -21.94702 | 59° | 26km/h | 23301m | 4.6m/s | -46.5°C | 0.8% | 0hPa | 0V | 00:00:00 | 00:00:00 | 00:00:00 | |
| DL9RDZ-1 | 2026-09-01 00:25:14 | 63.75466 | -21.94828 | 74° | 26km/h | 23243m | 5.1m/s | -46.7°C | 0.8% | 0hPa | 0V | 00:00:00 | 00:00:00 | 00:00:00 | |
| DL9RDZ-1 | 2026-09-01 00:25:04 | 63.75457 | -21.94980 | 81° | 26km/h | 23185m | 5.3m/s | -46.9°C | 0.8% | 0hPa | 0V | 00:00:00 | 00:00:00 | 00:00:00 | |
| DL9RDZ-1 | 2026-09-01 00:24:53 | 63.75437 | -21.95112 | 88° | 18km/h | 23132m | 4.7m/s | -47.2°C | 0.8% | 0hPa | 0V | 00:00:00 | 00:00:00 | 00:00:00 | |
| DL9RDZ-1 | 2026-09-01 00:24:43 | 63.75419 | -21.95248 | 59° | 27km/h | 23078m | 4.9m/s | -47.2°C | 0.8% | 0hPa | 0V | 00:00:00 | 00:00:00 | 00:00:00 | |
| DL9RDZ-1 | 2026-09-01 00:24:32 | 63.75397 | -21.95418 | 67° | 31km/h | 23022m | 5.7m/s | -47.3°C | 0.9% | 0hPa | 0V | 00:00:00 | 00:00:00 | 00:00:00 | |
| DL9RDZ-1 | 2026-09-01 00:24:21 | 63.75355 | -21.95573 | 83° | 31km/h | 22963m | 5.5m/s | -47.7°C | 0.9% | 0hPa | 0V | 00:00:00 | 00:00:00 | 00:00:00 | |
| DL9RDZ-1 | 2026-09-01 00:24:11 | 63.75320 | -21.95712 | 62° | 33km/h | 22910m | 4.0m/s | -47.9°C | 0.9% | 0hPa | 0V | 00:00:00 | 00:00:00 | 00:00:00 | |
| DL9RDZ-1 | 2026-09-01 00:23:51 | 63.75275 | -21.95987 | 57° | 31km/h | 22810m | 4.8m/s | -48.7°C | 0.9% | 0hPa | 0V | 00:00:00 | 00:00:00 | 00:00:00 | |
| DL9RDZ-1 | 2026-09-01 00:23:40 | 63.75230 | -21.96163 | 50° | 38km/h | 22755m | 5.4m/s | -48.6°C | 0.9% | 0hPa | 0V | 00:00:00 | 00:00:00 | 00:00:00 | |
| DL9RDZ-1 | 2026-09-01 00:23:29 | 63.75170 | -21.96361 | 54° | 38km/h | 22696m | 5.2m/s | -48.5°C | 1.0% | 0hPa | 0V | 00:00:00 | 00:00:00 | 00:00:00 | |
| DL9RDZ-1 | 2026-09-01 00:23:19 | 63.75112 | -21.96524 | 62° | 37km/h | 22645m | 4.6m/s | -48.2°C | 0.9% | 0hPa | 0V | 00:00:00 | 00:00:00 | 00:00:00 | |
| DL9RDZ-1 | 2026-09-01 00:23:08 | 63.75056 | -21.96686 | 57° | 31km/h | 22588m | 4.8m/s | -48.0°C | 0.9% | 0hPa | 0V | 00:00:00 | 00:00:00 | 00:00:00 | |
| DL9RDZ-1 | 2026-09-01 00:22:58 | 63.75010 | -21.96822 | 55° | 24km/h | 22536m | 4.3m/s | -47.9°C | 0.9% | 0hPa | 0V | 00:00:00 | 00:00:00 | 00:00:00 | |
| DL9RDZ-1 | 2026-09-01 00:22:37 | 63.74938 | -21.97084 | 57° | 24km/h | 22426m | 6.1m/s | -48.0°C | 0.9% | 0hPa | 0V | 00:00:00 | 00:00:00 | 00:00:00 | |
| DL9RDZ-1 | 2026-09-01 00:22:26 | 63.74909 | -21.97219 | 68° | 26km/h | 22370m | 4.9m/s | -47.8°C | 0.9% | 0hPa | 0V | 00:00:00 | 00:00:00 | 00:00:00 | |
| DL9RDZ-1 | 2026-09-01 00:22:15 | 63.74895 | -21.97365 | 88° | 27km/h | 22311m | 5.0m/s | -47.8°C | 0.9% | 0hPa | 0V | 00:00:00 | 00:00:00 | 00:00:00 | |
| DL9RDZ-1 | 2026-09-01 00:22:04 | 63.74877 | -21.97522 | 84° | 27km/h | 22253m | 4.5m/s | -47.8°C | 0.9% | 0hPa | 0V | 00:00:00 | 00:00:00 | 00:00:00 | |
| DL9RDZ-1 | 2026-09-01 00:21:54 | 63.74857 | -21.97683 | 68° | 33km/h | 22200m | 6.2m/s | -48.3°C | 0.9% | 0hPa | 0V | 00:00:00 | 00:00:00 | 00:00:00 | |
| DL9RDZ-1 | 2026-09-01 00:21:33 | 63.74755 | -21.97998 | 38° | 29km/h | 22088m | 5.0m/s | -48.2°C | 0.9% | 0hPa | 0V | 00:00:00 | 00:00:00 | 00:00:00 | |
| DL9RDZ-1 | 2026-09-01 00:21:22 | 63.74672 | -21.98147 | 29° | 26km/h | 22030m | 5.2m/s | -48.2°C | 1.0% | 0hPa | 0V | 00:00:00 | 00:00:00 | 00:00:00 | |
| DL9RDZ-1 | 2026-09-01 00:21:16 | 63.74608 | -21.98209 | 27° | 33km/h | 21977m | 6.1m/s | -48.3°C | 1.0% | 0hPa | 0V | 00:00:00 | 00:00:00 | 00:00:00 | |
| DL9RDZ-1 | 2026-09-01 00:21:02 | 63.74545 | -21.98264 | 22° | 27km/h | 21925m | 4.4m/s | -48.3°C | 0.9% | 0hPa | 0V | 00:00:00 | 00:00:00 | 00:00:00 | |
| DL9RDZ-1 | 2026-09-01 00:20:51 | 63.74479 | -21.98327 | 8° | 26km/h | 21867m | 4.7m/s | -48.0°C | 0.9% | 0hPa | 0V | 00:00:00 | 00:00:00 | 00:00:00 | |
| DL9RDZ-1 | 2026-09-01 00:20:40 | 63.74424 | -21.98372 | 39° | 22km/h | 21808m | 5.4m/s | -48.3°C | 1.0% | 0hPa | 0V | 00:00:00 | 00:00:00 | 00:00:00 | |
| DL9RDZ-1 | 2026-09-01 00:20:30 | 63.74365 | -21.98458 | 23° | 29km/h | 21754m | 6.0m/s | -48.4°C | 0.9% | 0hPa | 0V | 00:00:00 | 00:00:00 | 00:00:00 | |
| DL9RDZ-1 | 2026-09-01 00:20:19 | 63.74303 | -21.98534 | 41° | 22km/h | 21697m | 5.0m/s | -48.0°C | 0.9% | 0hPa | 0V | 00:00:00 | 00:00:00 | 00:00:00 | |
| DL9RDZ-1 | 2026-09-01 00:20:08 | 63.74257 | -21.98602 | 52° | 18km/h | 21640m | 5.2m/s | -47.9°C | 0.9% | 0hPa | 0V | 00:00:00 | 00:00:00 | 00:00:00 | |
| DL9RDZ-1 | 2026-09-01 00:19:57 | 63.74224 | -21.98653 | 64° | 11km/h | 21584m | 5.0m/s | -48.3°C | 1.0% | 0hPa | 0V | 00:00:00 | 00:00:00 | 00:00:00 | |
| DL9RDZ-1 | 2026-09-01 00:19:46 | 63.74211 | -21.98713 | 91° | 11km/h | 21525m | 4.1m/s | -48.1°C | 1.0% | 0hPa | 0V | 00:00:00 | 00:00:00 | 00:00:00 | |
| DL9RDZ-1 | 2026-09-01 00:19:35 | 63.74209 | -21.98802 | 83° | 18km/h | 21467m | 4.7m/s | -48.1°C | 1.0% | 0hPa | 0V | 00:00:00 | 00:00:00 | 00:00:00 | |
| DL9RDZ-1 | 2026-09-01 00:19:13 | 63.74241 | -21.99046 | 119° | 26km/h | 21354m | 5.0m/s | -48.5°C | 1.0% | 0hPa | 0V | 00:00:00 | 00:00:00 | 00:00:00 | |
| DL9RDZ-1 | 2026-09-01 00:19:03 | 63.74256 | -21.99194 | 116° | 27km/h | 21301m | 4.3m/s | -48.4°C | 1.0% | 0hPa | 0V | 00:00:00 | 00:00:00 | 00:00:00 | |
| DL9RDZ-1 | 2026-09-01 00:18:52 | 63.74273 | -21.99387 | 90° | 37km/h | 21245m | 5.9m/s | -48.3°C | 1.0% | 0hPa | 0V | 00:00:00 | 00:00:00 | 00:00:00 | |
| DL9RDZ-1 | 2026-09-01 00:18:42 | 63.74283 | -21.99583 | 89° | 33km/h | 21192m | 6.2m/s | -48.3°C | 1.0% | 0hPa | 0V | 00:00:00 | 00:00:00 | 00:00:00 | |
| DL9RDZ-1 | 2026-09-01 00:18:31 | 63.74278 | -21.99810 | 97° | 33km/h | 21135m | 5.8m/s | -48.3°C | 1.0% | 0hPa | 0V | 00:00:00 | 00:00:00 | 00:00:00 | |
| DL9RDZ-1 | 2026-09-01 00:17:46 | 63.74171 | -22.00485 | 45° | 26km/h | 20903m | 5.4m/s | -48.1°C | 1.0% | 0hPa | 0V | 00:00:00 | 00:00:00 | 00:00:00 | |
| DL9RDZ-1 | 2026-09-01 00:17:35 | 63.74129 | -22.00650 | 52° | 22km/h | 20847m | 5.1m/s | -47.7°C | 1.0% | 0hPa | 0V | 00:00:00 | 00:00:00 | 00:00:00 | |
| DL9RDZ-1 | 2026-09-01 00:17:24 | 63.74083 | -22.00793 | 54° | 27km/h | 20791m | 6.1m/s | -47.8°C | 1.0% | 0hPa | 0V | 00:00:00 | 00:00:00 | 00:00:00 | |
| DL9RDZ-1 | 2026-09-01 00:17:13 | 63.74038 | -22.00906 | 55° | 27km/h | 20733m | 5.1m/s | -47.4°C | 1.0% | 0hPa | 0V | 00:00:00 | 00:00:00 | 00:00:00 | |
| DL9RDZ-1 | 2026-09-01 00:16:24 | 63.73776 | -22.01514 | 44° | 35km/h | 20487m | 5.8m/s | -47.4°C | 1.0% | 0hPa | 0V | 00:00:00 | 00:00:00 | 00:00:00 | |
| DL9RDZ-1 | 2026-09-01 00:16:14 | 63.73711 | -22.01640 | 51° | 31km/h | 20436m | 4.1m/s | -47.3°C | 1.0% | 0hPa | 0V | 00:00:00 | 00:00:00 | 00:00:00 | |
| DL9RDZ-1 | 2026-09-01 00:16:03 | 63.73656 | -22.01761 | 32° | 29km/h | 20381m | 6.3m/s | -47.1°C | 0.9% | 0hPa | 0V | 00:00:00 | 00:00:00 | 00:00:00 | |
| DL9RDZ-1 | 2026-09-01 00:15:53 | 63.73610 | -22.01836 | 49° | 22km/h | 20331m | 4.7m/s | -47.4°C | 1.0% | 0hPa | 0V | 00:00:00 | 00:00:00 | 00:00:00 | |
| DL9RDZ-1 | 2026-09-01 00:15:43 | 63.73582 | -22.01883 | 79° | 7km/h | 20281m | 5.2m/s | -47.7°C | 1.0% | 0hPa | 0V | 00:00:00 | 00:00:00 | 00:00:00 | |
| DL9RDZ-1 | 2026-09-01 00:15:33 | 63.73569 | -22.01953 | 59° | 16km/h | 20231m | 4.3m/s | -47.7°C | 1.0% | 0hPa | 0V | 00:00:00 | 00:00:00 | 00:00:00 | |
| DL9RDZ-1 | 2026-09-01 00:15:22 | 63.73549 | -22.02034 | 45° | 16km/h | 20177m | 5.3m/s | -47.9°C | 1.0% | 0hPa | 0V | 00:00:00 | 00:00:00 | 00:00:00 | |
| DL9RDZ-1 | 2026-09-01 00:15:11 | 63.73530 | -22.02150 | 80° | 20km/h | 20120m | 6.0m/s | -48.0°C | 1.0% | 0hPa | 0V | 00:00:00 | 00:00:00 | 00:00:00 | |
| DL9RDZ-1 | 2026-09-01 00:15:01 | 63.73506 | -22.02247 | 66° | 29km/h | 20071m | 3.7m/s | -48.0°C | 1.0% | 0hPa | 0V | 00:00:00 | 00:00:00 | 00:00:00 | |
| DL9RDZ-1 | 2026-09-01 00:14:51 | 63.73483 | -22.02369 | 70° | 27km/h | 20016m | 4.2m/s | -48.0°C | 1.0% | 0hPa | 0V | 00:00:00 | 00:00:00 | 00:00:00 | |
| DL9RDZ-1 | 2026-09-01 00:14:39 | 63.73460 | -22.02520 | 67° | 18km/h | 19959m | 5.7m/s | -48.1°C | 1.0% | 0hPa | 0V | 00:00:00 | 00:00:00 | 00:00:00 | |
| DL9RDZ-1 | 2026-09-01 00:14:28 | 63.73432 | -22.02674 | 63° | 24km/h | 19903m | 5.2m/s | -48.0°C | 1.0% | 0hPa | 0V | 00:00:00 | 00:00:00 | 00:00:00 | |
| DL9RDZ-1 | 2026-09-01 00:14:18 | 63.73397 | -22.02754 | 60° | 24km/h | 19853m | 4.1m/s | -48.0°C | 1.0% | 0hPa | 0V | 00:00:00 | 00:00:00 | 00:00:00 | |
| DL9RDZ-1 | 2026-09-01 00:14:09 | 63.73375 | -22.02843 | 48° | 18km/h | 19800m | 4.1m/s | -47.9°C | 1.0% | 0hPa | 0V | 00:00:00 | 00:00:00 | 00:00:00 | |
| DL9RDZ-1 | 2026-09-01 00:13:58 | 63.73350 | -22.02909 | 64° | 18km/h | 19747m | 4.7m/s | -48.0°C | 1.1% | 0hPa | 0V | 00:00:00 | 00:00:00 | 00:00:00 | |
| DL9RDZ-1 | 2026-09-01 00:13:48 | 63.73333 | -22.02991 | 78° | 15km/h | 19694m | 4.4m/s | -48.1°C | 1.0% | 0hPa | 0V | 00:00:00 | 00:00:00 | 00:00:00 | |
| DL9RDZ-1 | 2026-09-01 00:13:37 | 63.73316 | -22.03092 | 75° | 15km/h | 19637m | 4.8m/s | -47.9°C | 1.0% | 0hPa | 0V | 00:00:00 | 00:00:00 | 00:00:00 | |
| DL9RDZ-1 | 2026-09-01 00:13:26 | 63.73296 | -22.03187 | 67° | 16km/h | 19579m | 5.4m/s | -47.6°C | 1.0% | 0hPa | 0V | 00:00:00 | 00:00:00 | 00:00:00 | |
| DL9RDZ-1 | 2026-09-01 00:13:16 | 63.73272 | -22.03273 | 53° | 18km/h | 19529m | 6.1m/s | -47.2°C | 1.0% | 0hPa | 0V | 00:00:00 | 00:00:00 | 00:00:00 | |
| DL9RDZ-1 | 2026-09-01 00:13:05 | 63.73248 | -22.03357 | 57° | 18km/h | 19473m | 5.8m/s | -47.2°C | 1.0% | 0hPa | 0V | 00:00:00 | 00:00:00 | 00:00:00 | |
| DL9RDZ-1 | 2026-09-01 00:12:54 | 63.73222 | -22.03440 | 62° | 9km/h | 19417m | 5.8m/s | -47.0°C | 1.0% | 0hPa | 0V | 00:00:00 | 00:00:00 | 00:00:00 | |
| DL9RDZ-1 | 2026-09-01 00:12:44 | 63.73206 | -22.03508 | 65° | 16km/h | 19365m | 5.3m/s | -47.0°C | 0.9% | 0hPa | 0V | 00:00:00 | 00:00:00 | 00:00:00 | |
| DL9RDZ-1 | 2026-09-01 00:12:33 | 63.73211 | -22.03585 | 127° | 15km/h | 19309m | 4.7m/s | -47.4°C | 1.0% | 0hPa | 0V | 00:00:00 | 00:00:00 | 00:00:00 | |
| DL9RDZ-1 | 2026-09-01 00:12:22 | 63.73216 | -22.03694 | 79° | 18km/h | 19257m | 4.8m/s | -47.7°C | 1.0% | 0hPa | 0V | 00:00:00 | 00:00:00 | 00:00:00 | |
| DL9RDZ-1 | 2026-09-01 00:12:11 | 63.73199 | -22.03825 | 77° | 16km/h | 19204m | 4.3m/s | -47.8°C | 1.0% | 0hPa | 0V | 00:00:00 | 00:00:00 | 00:00:00 | |
| DL9RDZ-1 | 2026-09-01 00:12:01 | 63.73198 | -22.03959 | 90° | 15km/h | 19154m | 3.3m/s | -48.2°C | 1.1% | 0hPa | 0V | 00:00:00 | 00:00:00 | 00:00:00 | |
| DL9RDZ-1 | 2026-09-01 00:11:49 | 63.73217 | -22.04074 | 97° | 22km/h | 19101m | 4.4m/s | -48.0°C | 1.1% | 0hPa | 0V | 00:00:00 | 00:00:00 | 00:00:00 | |
| DL9RDZ-1 | 2026-09-01 00:11:38 | 63.73228 | -22.04208 | 91° | 24km/h | 19047m | 5.6m/s | -47.7°C | 1.0% | 0hPa | 0V | 00:00:00 | 00:00:00 | 00:00:00 | |
| DL9RDZ-1 | 2026-09-01 00:11:27 | 63.73212 | -22.04361 | 76° | 27km/h | 18994m | 4.4m/s | -47.7°C | 1.0% | 0hPa | 0V | 00:00:00 | 00:00:00 | 00:00:00 | |
| DL9RDZ-1 | 2026-09-01 00:11:17 | 63.73191 | -22.04510 | 70° | 24km/h | 18946m | 5.4m/s | -47.7°C | 1.1% | 0hPa | 0V | 00:00:00 | 00:00:00 | 00:00:00 | |
| DL9RDZ-1 | 2026-09-01 00:10:56 | 63.73097 | -22.04821 | 57° | 38km/h | 18844m | 3.8m/s | -47.5°C | 1.0% | 0hPa | 0V | 00:00:00 | 00:00:00 | 00:00:00 | |
| DL9RDZ-1 | 2026-09-01 00:10:45 | 63.73023 | -22.04962 | 42° | 37km/h | 18790m | 4.4m/s | -47.3°C | 1.0% | 0hPa | 0V | 00:00:00 | 00:00:00 | 00:00:00 | |
| DL9RDZ-1 | 2026-09-01 00:10:35 | 63.72945 | -22.05077 | 28° | 35km/h | 18739m | 5.0m/s | -47.4°C | 1.0% | 0hPa | 0V | 00:00:00 | 00:00:00 | 00:00:00 | |
| DL9RDZ-1 | 2026-09-01 00:10:24 | 63.72877 | -22.05165 | 31° | 29km/h | 18689m | 5.5m/s | -47.4°C | 1.0% | 0hPa | 0V | 00:00:00 | 00:00:00 | 00:00:00 | |
| DL9RDZ-1 | 2026-09-01 00:10:13 | 63.72825 | -22.05266 | 48° | 24km/h | 18635m | 5.5m/s | -47.4°C | 1.0% | 0hPa | 0V | 00:00:00 | 00:00:00 | 00:00:00 | |
| DL9RDZ-1 | 2026-09-01 00:10:03 | 63.72787 | -22.05359 | 57° | 22km/h | 18580m | 5.2m/s | -47.2°C | 1.0% | 0hPa | 0V | 00:00:00 | 00:00:00 | 00:00:00 | |
| DL9RDZ-1 | 2026-09-01 00:09:51 | 63.72752 | -22.05474 | 50° | 22km/h | 18528m | 5.1m/s | -47.1°C | 1.0% | 0hPa | 0V | 00:00:00 | 00:00:00 | 00:00:00 | |
| DL9RDZ-1 | 2026-09-01 00:09:40 | 63.72723 | -22.05602 | 61° | 22km/h | 18475m | 5.8m/s | -46.9°C | 1.0% | 0hPa | 0V | 00:00:00 | 00:00:00 | 00:00:00 | |
| DL9RDZ-1 | 2026-09-01 00:09:30 | 63.72705 | -22.05740 | 69° | 20km/h | 18417m | 6.3m/s | -47.2°C | 1.0% | 0hPa | 0V | 00:00:00 | 00:00:00 | 00:00:00 | |
| DL9RDZ-1 | 2026-09-01 00:09:19 | 63.72689 | -22.05867 | 79° | 26km/h | 18365m | 3.8m/s | -47.4°C | 1.1% | 0hPa | 0V | 00:00:00 | 00:00:00 | 00:00:00 | |
| DL9RDZ-1 | 2026-09-01 00:09:09 | 63.72679 | -22.06040 | 94° | 37km/h | 18313m | 4.5m/s | -47.0°C | 1.0% | 0hPa | 0V | 00:00:00 | 00:00:00 | 00:00:00 | |
| DL9RDZ-1 | 2026-09-01 00:08:59 | 63.72668 | -22.06243 | 81° | 38km/h | 18254m | 4.0m/s | -47.0°C | 1.1% | 0hPa | 0V | 00:00:00 | 00:00:00 | 00:00:00 | |
| DL9RDZ-1 | 2026-09-01 00:08:48 | 63.72657 | -22.06445 | 81° | 35km/h | 18204m | 5.9m/s | -47.1°C | 1.0% | 0hPa | 0V | 00:00:00 | 00:00:00 | 00:00:00 | |
| DL9RDZ-1 | 2026-09-01 00:08:37 | 63.72629 | -22.06641 | 68° | 29km/h | 18149m | 6.0m/s | -47.1°C | 1.1% | 0hPa | 0V | 00:00:00 | 00:00:00 | 00:00:00 | |
| DL9RDZ-1 | 2026-09-01 00:08:27 | 63.72584 | -22.06805 | 61° | 29km/h | 18091m | 4.3m/s | -46.8°C | 1.0% | 0hPa | 0V | 00:00:00 | 00:00:00 | 00:00:00 | |
| DL9RDZ-1 | 2026-09-01 00:08:16 | 63.72545 | -22.06940 | 63° | 26km/h | 18040m | 4.7m/s | -47.0°C | 1.1% | 0hPa | 0V | 00:00:00 | 00:00:00 | 00:00:00 | |
| DL9RDZ-1 | 2026-09-01 00:08:06 | 63.72511 | -22.07062 | 74° | 24km/h | 17983m | 4.0m/s | -47.3°C | 1.1% | 0hPa | 0V | 00:00:00 | 00:00:00 | 00:00:00 | |
| DL9RDZ-1 | 2026-09-01 00:07:54 | 63.72490 | -22.07210 | 86° | 22km/h | 17928m | 6.1m/s | -47.1°C | 1.1% | 0hPa | 0V | 00:00:00 | 00:00:00 | 00:00:00 | |
| DL9RDZ-1 | 2026-09-01 00:07:43 | 63.72475 | -22.07375 | 69° | 27km/h | 17873m | 4.6m/s | -46.8°C | 1.0% | 0hPa | 0V | 00:00:00 | 00:00:00 | 00:00:00 | |
| DL9RDZ-1 | 2026-09-01 00:07:33 | 63.72466 | -22.07502 | 74° | 26km/h | 17823m | 5.9m/s | -46.5°C | 1.0% | 0hPa | 0V | 00:00:00 | 00:00:00 | 00:00:00 | |
| DL9RDZ-1 | 2026-09-01 00:07:23 | 63.72454 | -22.07627 | 96° | 22km/h | 17770m | 4.9m/s | -46.3°C | 1.0% | 0hPa | 0V | 00:00:00 | 00:00:00 | 00:00:00 | |
| DL9RDZ-1 | 2026-09-01 00:07:12 | 63.72457 | -22.07748 | 89° | 22km/h | 17722m | 5.3m/s | -46.1°C | 1.0% | 0hPa | 0V | 00:00:00 | 00:00:00 | 00:00:00 | |
| DL9RDZ-1 | 2026-09-01 00:06:51 | 63.72443 | -22.08033 | 83° | 29km/h | 17622m | 5.4m/s | -46.9°C | 1.0% | 0hPa | 0V | 00:00:00 | 00:00:00 | 00:00:00 | |
| DL9RDZ-1 | 2026-09-01 00:06:41 | 63.72431 | -22.08187 | 78° | 22km/h | 17575m | 5.3m/s | -47.0°C | 1.0% | 0hPa | 0V | 00:00:00 | 00:00:00 | 00:00:00 | |
| DL9RDZ-1 | 2026-09-01 00:06:30 | 63.72397 | -22.08343 | 60° | 27km/h | 17525m | 4.5m/s | -47.1°C | 1.1% | 0hPa | 0V | 00:00:00 | 00:00:00 | 00:00:00 | |
| DL9RDZ-1 | 2026-09-01 00:06:20 | 63.72364 | -22.08452 | 54° | 26km/h | 17478m | 4.9m/s | -47.0°C | 1.0% | 0hPa | 0V | 00:00:00 | 00:00:00 | 00:00:00 | |
| DL9RDZ-1 | 2026-09-01 00:06:10 | 63.72346 | -22.08583 | 65° | 22km/h | 17428m | 3.6m/s | -47.1°C | 1.1% | 0hPa | 0V | 00:00:00 | 00:00:00 | 00:00:00 | |
| DL9RDZ-1 | 2026-09-01 00:05:59 | 63.72336 | -22.08683 | 94° | 18km/h | 17386m | 3.9m/s | -47.2°C | 1.1% | 0hPa | 0V | 00:00:00 | 00:00:00 | 00:00:00 | |
| DL9RDZ-1 | 2026-09-01 00:05:48 | 63.72347 | -22.08825 | 107° | 24km/h | 17336m | 5.3m/s | -46.9°C | 1.1% | 0hPa | 0V | 00:00:00 | 00:00:00 | 00:00:00 | |
| DL9RDZ-1 | 2026-09-01 00:05:39 | 63.72362 | -22.08984 | 104° | 29km/h | 17290m | 5.0m/s | -46.7°C | 1.1% | 0hPa | 0V | 00:00:00 | 00:00:00 | 00:00:00 | |
| DL9RDZ-1 | 2026-09-01 00:05:29 | 63.72376 | -22.09168 | 98° | 33km/h | 17245m | 4.4m/s | -46.6°C | 1.0% | 0hPa | 0V | 00:00:00 | 00:00:00 | 00:00:00 | |
| DL9RDZ-1 | 2026-09-01 00:05:20 | 63.72384 | -22.09392 | 97° | 38km/h | 17196m | 3.8m/s | -46.5°C | 1.0% | 0hPa | 0V | 00:00:00 | 00:00:00 | 00:00:00 | |
| DL9RDZ-1 | 2026-09-01 00:05:07 | 63.72375 | -22.09616 | 83° | 46km/h | 17153m | 2.8m/s | -46.5°C | 1.1% | 0hPa | 0V | 00:00:00 | 00:00:00 | 00:00:00 | |
| DL9RDZ-1 | 2026-09-01 00:04:57 | 63.72350 | -22.09873 | 71° | 38km/h | 17104m | 4.5m/s | -46.4°C | 1.1% | 0hPa | 0V | 00:00:00 | 00:00:00 | 00:00:00 | |
| DL9RDZ-1 | 2026-09-01 00:04:49 | 63.72317 | -22.10084 | 65° | 37km/h | 17059m | 4.9m/s | -46.3°C | 1.0% | 0hPa | 0V | 00:00:00 | 00:00:00 | 00:00:00 | |
| DL9RDZ-1 | 2026-09-01 00:04:36 | 63.72280 | -22.10300 | 70° | 35km/h | 17012m | 4.7m/s | -46.3°C | 1.1% | 0hPa | 0V | 00:00:00 | 00:00:00 | 00:00:00 | |
| DL9RDZ-1 | 2026-09-01 00:04:25 | 63.72234 | -22.10490 | 70° | 40km/h | 16961m | 4.8m/s | -46.3°C | 1.0% | 0hPa | 0V | 00:00:00 | 00:00:00 | 00:00:00 | |
| DL9RDZ-1 | 2026-09-01 00:04:14 | 63.72196 | -22.10676 | 69° | 27km/h | 16911m | 4.7m/s | -46.9°C | 1.1% | 0hPa | 0V | 00:00:00 | 00:00:00 | 00:00:00 | |
| DL9RDZ-1 | 2026-09-01 00:03:52 | 63.72166 | -22.11076 | 81° | 35km/h | 16811m | 3.7m/s | -47.0°C | 1.1% | 0hPa | 0V | 00:00:00 | 00:00:00 | 00:00:00 | |
| DL9RDZ-1 | 2026-09-01 00:03:45 | 63.72143 | -22.11285 | 70° | 35km/h | 16758m | 4.7m/s | -47.3°C | 1.1% | 0hPa | 0V | 00:00:00 | 00:00:00 | 00:00:00 | |
| DL9RDZ-1 | 2026-09-01 00:03:40 | 63.72100 | -22.11463 | 58° | 31km/h | 16710m | 5.2m/s | -46.9°C | 1.1% | 0hPa | 0V | 00:00:00 | 00:00:00 | 00:00:00 | |
| DL9RDZ-1 | 2026-09-01 00:03:34 | 63.72051 | -22.11631 | 52° | 35km/h | 16658m | 5.6m/s | -46.9°C | 1.1% | 0hPa | 0V | 00:00:00 | 00:00:00 | 00:00:00 | |
| DL9RDZ-1 | 2026-09-01 00:03:28 | 63.71997 | -22.11770 | 38° | 29km/h | 16601m | 4.3m/s | -46.6°C | 1.1% | 0hPa | 0V | 00:00:00 | 00:00:00 | 00:00:00 | |
| DL9RDZ-1 | 2026-09-01 00:03:17 | 63.71955 | -22.11869 | 44° | 20km/h | 16551m | 4.3m/s | -46.4°C | 1.1% | 0hPa | 0V | 00:00:00 | 00:00:00 | 00:00:00 | |
| DL9RDZ-1 | 2026-09-01 00:03:09 | 63.71912 | -22.11950 | 38° | 18km/h | 16498m | 4.6m/s | -46.2°C | 1.1% | 0hPa | 0V | 00:00:00 | 00:00:00 | 00:00:00 | |
| DL9RDZ-1 | 2026-09-01 00:02:47 | 63.71875 | -22.12003 | 52° | 16km/h | 16444m | 3.7m/s | -46.0°C | 1.0% | 0hPa | 0V | 00:00:00 | 00:00:00 | 00:00:00 | |
| DL9RDZ-1 | 2026-09-01 00:02:36 | 63.71855 | -22.12073 | 65° | 13km/h | 16394m | 5.4m/s | -45.9°C | 1.1% | 0hPa | 0V | 00:00:00 | 00:00:00 | 00:00:00 | |
| DL9RDZ-1 | 2026-09-01 00:02:19 | 63.71850 | -22.12149 | 93° | 15km/h | 16345m | 4.5m/s | -45.8°C | 1.1% | 0hPa | 0V | 00:00:00 | 00:00:00 | 00:00:00 | |
| DL9RDZ-1 | 2026-09-01 00:02:05 | 63.71846 | -22.12241 | 84° | 13km/h | 16292m | 3.9m/s | -45.8°C | 1.0% | 0hPa | 0V | 00:00:00 | 00:00:00 | 00:00:00 | |
| DL9RDZ-1 | 2026-09-01 00:01:59 | 63.71872 | -22.12480 | 107° | 31km/h | 16190m | 3.7m/s | -45.9°C | 1.1% | 0hPa | 0V | 00:00:00 | 00:00:00 | 00:00:00 | |
| DL9RDZ-1 | 2026-09-01 00:01:42 | 63.71886 | -22.12627 | 102° | 26km/h | 16144m | 3.3m/s | -45.8°C | 1.1% | 0hPa | 0V | 00:00:00 | 00:00:00 | 00:00:00 | |
| DL9RDZ-1 | 2026-09-01 00:01:28 | 63.71890 | -22.12820 | 89° | 31km/h | 16096m | 5.4m/s | -46.2°C | 1.1% | 0hPa | 0V | 00:00:00 | 00:00:00 | 00:00:00 | |
| DL9RDZ-1 | 2026-09-01 00:01:16 | 63.71891 | -22.12985 | 90° | 33km/h | 16050m | 4.3m/s | -46.2°C | 1.1% | 0hPa | 0V | 00:00:00 | 00:00:00 | 00:00:00 | |
| DL9RDZ-1 | 2026-09-01 00:00:57 | 63.71860 | -22.13338 | 74° | 26km/h | 15958m | 5.2m/s | -46.4°C | 1.1% | 0hPa | 0V | 00:00:00 | 00:00:00 | 00:00:00 | |
| DL9RDZ-1 | 2026-09-01 00:00:42 | 63.71847 | -22.13482 | 68° | 26km/h | 15914m | 3.5m/s | -46.3°C | 1.1% | 0hPa | 0V | 00:00:00 | 00:00:00 | 00:00:00 | |
| DL9RDZ-1 | 2026-09-01 00:00:32 | 63.71840 | -22.13603 | 78° | 27km/h | 15869m | 4.5m/s | -46.2°C | 1.1% | 0hPa | 0V | 00:00:00 | 00:00:00 | 00:00:00 | |
| DL9RDZ-1 | 2026-09-01 00:00:14 | 63.71844 | -22.13899 | 97° | 26km/h | 15779m | 4.9m/s | -46.3°C | 1.1% | 0hPa | 0V | 00:00:00 | 00:00:00 | 00:00:00 | |
| DL9RDZ-1 | 2026-08-31 23:59:59 | 63.71864 | -22.14069 | 103° | 29km/h | 15731m | 4.7m/s | -46.2°C | 1.1% | 0hPa | 0V | 00:00:00 | 00:00:00 | 00:00:00 | |
| DL9RDZ-1 | 2026-08-31 23:59:48 | 63.71882 | -22.14268 | 100° | 35km/h | 15681m | 5.1m/s | -46.3°C | 1.1% | 0hPa | 0V | 00:00:00 | 00:00:00 | 00:00:00 | |
| DL9RDZ-1 | 2026-08-31 23:59:38 | 63.71896 | -22.14473 | 106° | 38km/h | 15636m | 4.3m/s | -46.4°C | 1.1% | 0hPa | 0V | 00:00:00 | 00:00:00 | 00:00:00 | |
| DL9RDZ-1 | 2026-08-31 23:59:27 | 63.71908 | -22.14728 | 96° | 46km/h | 15586m | 2.9m/s | -46.6°C | 1.2% | 0hPa | 0V | 00:00:00 | 00:00:00 | 00:00:00 | |
| DL9RDZ-1 | 2026-08-31 23:59:16 | 63.71916 | -22.14961 | 85° | 35km/h | 15533m | 4.4m/s | -46.4°C | 1.1% | 0hPa | 0V | 00:00:00 | 00:00:00 | 00:00:00 | |
| DL9RDZ-1 | 2026-08-31 23:59:06 | 63.71915 | -22.15150 | 97° | 29km/h | 15483m | 3.8m/s | -46.2°C | 1.2% | 0hPa | 0V | 00:00:00 | 00:00:00 | 00:00:00 | |
| DL9RDZ-1 | 2026-08-31 23:58:55 | 63.71915 | -22.15332 | 104° | 29km/h | 15434m | 4.5m/s | -46.2°C | 1.2% | 0hPa | 0V | 00:00:00 | 00:00:00 | 00:00:00 | |
| DL9RDZ-1 | 2026-08-31 23:58:45 | 63.71925 | -22.15448 | 107° | 20km/h | 15386m | 4.6m/s | -46.2°C | 1.2% | 0hPa | 0V | 00:00:00 | 00:00:00 | 00:00:00 | |
| DL9RDZ-1 | 2026-08-31 23:58:33 | 63.71947 | -22.15581 | 106° | 24km/h | 15331m | 4.1m/s | -46.2°C | 1.2% | 0hPa | 0V | 00:00:00 | 00:00:00 | 00:00:00 | |
| DL9RDZ-1 | 2026-08-31 23:58:16 | 63.71975 | -22.15870 | 94° | 35km/h | 15252m | 4.9m/s | -46.7°C | 1.2% | 0hPa | 0V | 00:00:00 | 00:00:00 | 00:00:00 | |
| DL9RDZ-1 | 2026-08-31 23:58:05 | 63.71988 | -22.16077 | 100° | 31km/h | 15200m | 4.2m/s | -46.8°C | 1.2% | 0hPa | 0V | 00:00:00 | 00:00:00 | 00:00:00 | |
| DL9RDZ-1 | 2026-08-31 23:57:55 | 63.71992 | -22.16241 | 85° | 35km/h | 15153m | 3.4m/s | -47.2°C | 1.2% | 0hPa | 0V | 00:00:00 | 00:00:00 | 00:00:00 | |
| DL9RDZ-1 | 2026-08-31 23:57:44 | 63.71983 | -22.16419 | 92° | 33km/h | 15103m | 3.7m/s | -47.6°C | 1.3% | 0hPa | 0V | 00:00:00 | 00:00:00 | 00:00:00 | |
| DL9RDZ-1 | 2026-08-31 23:57:34 | 63.71965 | -22.16576 | 71° | 26km/h | 15057m | 5.5m/s | -47.4°C | 1.3% | 0hPa | 0V | 00:00:00 | 00:00:00 | 00:00:00 | |
| DL9RDZ-1 | 2026-08-31 23:57:23 | 63.71953 | -22.16732 | 76° | 24km/h | 15005m | 3.8m/s | -47.0°C | 1.2% | 0hPa | 0V | 00:00:00 | 00:00:00 | 00:00:00 | |
| DL9RDZ-1 | 2026-08-31 23:57:12 | 63.71949 | -22.16887 | 92° | 29km/h | 14953m | 4.2m/s | -46.7°C | 1.3% | 0hPa | 0V | 00:00:00 | 00:00:00 | 00:00:00 | |
| DL9RDZ-1 | 2026-08-31 23:57:02 | 63.71951 | -22.17032 | 100° | 26km/h | 14907m | 4.7m/s | -46.5°C | 1.3% | 0hPa | 0V | 00:00:00 | 00:00:00 | 00:00:00 | |
| DL9RDZ-1 | 2026-08-31 23:56:52 | 63.71962 | -22.17175 | 105° | 20km/h | 14860m | 4.5m/s | -46.6°C | 1.2% | 0hPa | 0V | 00:00:00 | 00:00:00 | 00:00:00 | |
| DL9RDZ-1 | 2026-08-31 23:56:42 | 63.71985 | -22.17308 | 119° | 31km/h | 14812m | 4.0m/s | -46.8°C | 1.3% | 0hPa | 0V | 00:00:00 | 00:00:00 | 00:00:00 | |
| DL9RDZ-1 | 2026-08-31 23:56:31 | 63.72014 | -22.17482 | 111° | 31km/h | 14763m | 4.4m/s | -46.8°C | 1.3% | 0hPa | 0V | 00:00:00 | 00:00:00 | 00:00:00 | |
| DL9RDZ-1 | 2026-08-31 23:56:21 | 63.72032 | -22.17666 | 97° | 37km/h | 14720m | 5.0m/s | -46.8°C | 1.3% | 0hPa | 0V | 00:00:00 | 00:00:00 | 00:00:00 | |
| DL9RDZ-1 | 2026-08-31 23:56:11 | 63.72041 | -22.17885 | 92° | 38km/h | 14675m | 3.6m/s | -46.6°C | 1.3% | 0hPa | 0V | 00:00:00 | 00:00:00 | 00:00:00 | |
| DL9RDZ-1 | 2026-08-31 23:56:00 | 63.72043 | -22.18138 | 92° | 42km/h | 14627m | 4.9m/s | -46.4°C | 1.3% | 0hPa | 0V | 00:00:00 | 00:00:00 | 00:00:00 | |
| DL9RDZ-1 | 2026-08-31 23:55:49 | 63.72032 | -22.18379 | 80° | 38km/h | 14577m | 4.6m/s | -46.2°C | 1.3% | 0hPa | 0V | 00:00:00 | 00:00:00 | 00:00:00 | |
| DL9RDZ-1 | 2026-08-31 23:55:38 | 63.72014 | -22.18619 | 80° | 38km/h | 14527m | 4.6m/s | -45.8°C | 1.2% | 0hPa | 0V | 00:00:00 | 00:00:00 | 00:00:00 | |
| DL9RDZ-1 | 2026-08-31 23:55:29 | 63.71985 | -22.18831 | 76° | 38km/h | 14481m | 3.9m/s | -45.6°C | 1.2% | 0hPa | 0V | 00:00:00 | 00:00:00 | 00:00:00 | |
| DL9RDZ-1 | 2026-08-31 23:55:17 | 63.71959 | -22.19056 | 77° | 42km/h | 14432m | 4.3m/s | -45.8°C | 1.2% | 0hPa | 0V | 00:00:00 | 00:00:00 | 00:00:00 | |
| DL9RDZ-1 | 2026-08-31 23:55:07 | 63.71941 | -22.19294 | 85° | 38km/h | 14380m | 5.7m/s | -45.7°C | 1.3% | 0hPa | 0V | 00:00:00 | 00:00:00 | 00:00:00 | |
| DL9RDZ-1 | 2026-08-31 23:54:56 | 63.71928 | -22.19487 | 80° | 31km/h | 14333m | 5.1m/s | -45.8°C | 1.3% | 0hPa | 0V | 00:00:00 | 00:00:00 | 00:00:00 | |
| DL9RDZ-1 | 2026-08-31 23:54:36 | 63.71888 | -22.19828 | 70° | 29km/h | 14235m | 4.6m/s | -45.9°C | 1.3% | 0hPa | 0V | 00:00:00 | 00:00:00 | 00:00:00 | |
| DL9RDZ-1 | 2026-08-31 23:54:25 | 63.71878 | -22.19987 | 90° | 29km/h | 14184m | 4.7m/s | -45.8°C | 1.3% | 0hPa | 0V | 00:00:00 | 00:00:00 | 00:00:00 | |
| DL9RDZ-1 | 2026-08-31 23:54:13 | 63.71872 | -22.20169 | 85° | 26km/h | 14136m | 4.1m/s | -45.7°C | 1.3% | 0hPa | 0V | 00:00:00 | 00:00:00 | 00:00:00 | |
| DL9RDZ-1 | 2026-08-31 23:54:04 | 63.71867 | -22.20314 | 81° | 29km/h | 14087m | 5.7m/s | -45.5°C | 1.3% | 0hPa | 0V | 00:00:00 | 00:00:00 | 00:00:00 | |
| DL9RDZ-1 | 2026-08-31 23:53:54 | 63.71858 | -22.20473 | 82° | 35km/h | 14040m | 3.4m/s | -45.7°C | 1.3% | 0hPa | 0V | 00:00:00 | 00:00:00 | 00:00:00 | |
| DL9RDZ-1 | 2026-08-31 23:53:42 | 63.71849 | -22.20664 | 80° | 31km/h | 13990m | 4.6m/s | -45.6°C | 1.3% | 0hPa | 0V | 00:00:00 | 00:00:00 | 00:00:00 | |
| DL9RDZ-1 | 2026-08-31 23:53:32 | 63.71844 | -22.20824 | 97° | 26km/h | 13939m | 4.9m/s | -45.2°C | 1.3% | 0hPa | 0V | 00:00:00 | 00:00:00 | 00:00:00 | |
| DL9RDZ-1 | 2026-08-31 23:53:20 | 63.71840 | -22.20984 | 89° | 26km/h | 13887m | 4.7m/s | -45.2°C | 1.3% | 0hPa | 0V | 00:00:00 | 00:00:00 | 00:00:00 | |
| DL9RDZ-1 | 2026-08-31 23:53:11 | 63.71841 | -22.21139 | 90° | 27km/h | 13839m | 5.3m/s | -45.4°C | 1.3% | 0hPa | 0V | 00:00:00 | 00:00:00 | 00:00:00 | |
| DL9RDZ-1 | 2026-08-31 23:52:59 | 63.71847 | -22.21312 | 100° | 29km/h | 13786m | 5.1m/s | -45.6°C | 1.3% | 0hPa | 0V | 00:00:00 | 00:00:00 | 00:00:00 | |
| DL9RDZ-1 | 2026-08-31 23:52:50 | 63.71856 | -22.21479 | 98° | 31km/h | 13743m | 4.8m/s | -45.3°C | 1.3% | 0hPa | 0V | 00:00:00 | 00:00:00 | 00:00:00 | |
| DL9RDZ-1 | 2026-08-31 23:52:38 | 63.71873 | -22.21679 | 108° | 33km/h | 13693m | 4.9m/s | -45.2°C | 1.3% | 0hPa | 0V | 00:00:00 | 00:00:00 | 00:00:00 | |
| DL9RDZ-1 | 2026-08-31 23:52:29 | 63.71880 | -22.21866 | 95° | 37km/h | 13646m | 4.3m/s | -45.3°C | 1.3% | 0hPa | 0V | 00:00:00 | 00:00:00 | 00:00:00 | |
| DL9RDZ-1 | 2026-08-31 23:52:19 | 63.71886 | -22.22068 | 89° | 33km/h | 13602m | 4.3m/s | -45.1°C | 1.3% | 0hPa | 0V | 00:00:00 | 00:00:00 | 00:00:00 | |
| DL9RDZ-1 | 2026-08-31 23:52:06 | 63.71865 | -22.22332 | 73° | 40km/h | 13547m | 4.1m/s | -45.5°C | 1.3% | 0hPa | 0V | 00:00:00 | 00:00:00 | 00:00:00 | |
| DL9RDZ-1 | 2026-08-31 23:51:49 | 63.71836 | -22.22709 | 93° | 37km/h | 13474m | 4.8m/s | -45.2°C | 1.3% | 0hPa | 0V | 00:00:00 | 00:00:00 | 00:00:00 | |
| DL9RDZ-1 | 2026-08-31 23:51:39 | 63.71842 | -22.22935 | 89° | 33km/h | 13424m | 3.9m/s | -44.9°C | 1.3% | 0hPa | 0V | 00:00:00 | 00:00:00 | 00:00:00 | |
| DL9RDZ-1 | 2026-08-31 23:51:27 | 63.71851 | -22.23162 | 102° | 37km/h | 13376m | 5.6m/s | -44.8°C | 1.3% | 0hPa | 0V | 00:00:00 | 00:00:00 | 00:00:00 | |
| DL9RDZ-1 | 2026-08-31 23:51:18 | 63.71871 | -22.23357 | 109° | 35km/h | 13332m | 4.2m/s | -44.8°C | 1.3% | 0hPa | 0V | 00:00:00 | 00:00:00 | 00:00:00 | |
| DL9RDZ-1 | 2026-08-31 23:51:06 | 63.71894 | -22.23571 | 100° | 33km/h | 13283m | 4.2m/s | -45.0°C | 1.3% | 0hPa | 0V | 00:00:00 | 00:00:00 | 00:00:00 | |
| DL9RDZ-1 | 2026-08-31 23:50:57 | 63.71912 | -22.23776 | 100° | 37km/h | 13242m | 3.0m/s | -45.2°C | 1.3% | 0hPa | 0V | 00:00:00 | 00:00:00 | 00:00:00 | |
| DL9RDZ-1 | 2026-08-31 23:50:45 | 63.71927 | -22.24022 | 101° | 44km/h | 13198m | 4.4m/s | -45.5°C | 1.3% | 0hPa | 0V | 00:00:00 | 00:00:00 | 00:00:00 | |
| DL9RDZ-1 | 2026-08-31 23:50:37 | 63.71939 | -22.24258 | 90° | 38km/h | 13154m | 4.5m/s | -46.3°C | 1.4% | 0hPa | 0V | 00:00:00 | 00:00:00 | 00:00:00 | |
| DL9RDZ-1 | 2026-08-31 23:50:34 | 63.71941 | -22.24483 | 93° | 40km/h | 13113m | 4.1m/s | -46.5°C | 1.4% | 0hPa | 0V | 00:00:00 | 00:00:00 | 00:00:00 | |
| DL9RDZ-1 | 2026-08-31 23:50:14 | 63.71938 | -22.24741 | 86° | 38km/h | 13068m | 3.3m/s | -46.5°C | 1.5% | 0hPa | 0V | 00:00:00 | 00:00:00 | 00:00:00 | |
| DL9RDZ-1 | 2026-08-31 23:50:02 | 63.71933 | -22.24973 | 92° | 35km/h | 13021m | 3.8m/s | -46.2°C | 1.4% | 0hPa | 0V | 00:00:00 | 00:00:00 | 00:00:00 | |
| DL9RDZ-1 | 2026-08-31 23:49:52 | 63.71940 | -22.25177 | 95° | 35km/h | 12974m | 4.5m/s | -46.2°C | 1.4% | 0hPa | 0V | 00:00:00 | 00:00:00 | 00:00:00 | |
| DL9RDZ-1 | 2026-08-31 23:49:42 | 63.71958 | -22.25360 | 108° | 33km/h | 12930m | 4.3m/s | -46.0°C | 1.5% | 0hPa | 0V | 00:00:00 | 00:00:00 | 00:00:00 | |
| DL9RDZ-1 | 2026-08-31 23:49:21 | 63.72025 | -22.25719 | 114° | 35km/h | 12839m | 5.0m/s | -45.6°C | 1.4% | 0hPa | 0V | 00:00:00 | 00:00:00 | 00:00:00 | |
| DL9RDZ-1 | 2026-08-31 23:49:11 | 63.72075 | -22.25921 | 120° | 37km/h | 12788m | 3.6m/s | -45.3°C | 1.4% | 0hPa | 0V | 00:00:00 | 00:00:00 | 00:00:00 | |
| DL9RDZ-1 | 2026-08-31 23:49:00 | 63.72116 | -22.26112 | 119° | 37km/h | 12744m | 3.6m/s | -45.4°C | 1.4% | 0hPa | 0V | 00:00:00 | 00:00:00 | 00:00:00 | |
| DL9RDZ-1 | 2026-08-31 23:48:50 | 63.72155 | -22.26287 | 109° | 33km/h | 12702m | 4.1m/s | -45.5°C | 1.4% | 0hPa | 0V | 00:00:00 | 00:00:00 | 00:00:00 | |
| DL9RDZ-1 | 2026-08-31 23:48:40 | 63.72184 | -22.26483 | 114° | 37km/h | 12655m | 3.9m/s | -45.7°C | 1.4% | 0hPa | 0V | 00:00:00 | 00:00:00 | 00:00:00 | |
| DL9RDZ-1 | 2026-08-31 23:48:28 | 63.72222 | -22.26712 | 111° | 40km/h | 12609m | 5.2m/s | -46.0°C | 1.4% | 0hPa | 0V | 00:00:00 | 00:00:00 | 00:00:00 | |
| DL9RDZ-1 | 2026-08-31 23:48:17 | 63.72262 | -22.26947 | 114° | 42km/h | 12561m | 5.1m/s | -46.2°C | 1.5% | 0hPa | 0V | 00:00:00 | 00:00:00 | 00:00:00 | |
| DL9RDZ-1 | 2026-08-31 23:48:06 | 63.72312 | -22.27227 | 113° | 47km/h | 12514m | 3.6m/s | -46.5°C | 1.5% | 0hPa | 0V | 00:00:00 | 00:00:00 | 00:00:00 | |
| DL9RDZ-1 | 2026-08-31 23:47:55 | 63.72355 | -22.27508 | 105° | 44km/h | 12469m | 3.9m/s | -46.4°C | 1.5% | 0hPa | 0V | 00:00:00 | 00:00:00 | 00:00:00 | |
| DL9RDZ-1 | 2026-08-31 23:47:45 | 63.72380 | -22.27757 | 105° | 42km/h | 12428m | 3.9m/s | -46.4°C | 1.4% | 0hPa | 0V | 00:00:00 | 00:00:00 | 00:00:00 | |
| DL9RDZ-1 | 2026-08-31 23:47:34 | 63.72400 | -22.28006 | 100° | 40km/h | 12382m | 3.9m/s | -46.7°C | 1.5% | 0hPa | 0V | 00:00:00 | 00:00:00 | 00:00:00 | |
| DL9RDZ-1 | 2026-08-31 23:47:24 | 63.72420 | -22.28221 | 104° | 35km/h | 12338m | 4.5m/s | -47.0°C | 1.6% | 0hPa | 0V | 00:00:00 | 00:00:00 | 00:00:00 | |
| DL9RDZ-1 | 2026-08-31 23:47:14 | 63.72443 | -22.28473 | 105° | 46km/h | 12288m | 3.8m/s | -46.8°C | 1.6% | 0hPa | 0V | 00:00:00 | 00:00:00 | 00:00:00 | |
| DL9RDZ-1 | 2026-08-31 23:47:02 | 63.72480 | -22.28714 | 105° | 38km/h | 12237m | 5.5m/s | -46.5°C | 1.6% | 0hPa | 0V | 00:00:00 | 00:00:00 | 00:00:00 | |
| DL9RDZ-1 | 2026-08-31 23:46:51 | 63.72503 | -22.28927 | 107° | 33km/h | 12185m | 4.2m/s | -46.4°C | 1.5% | 0hPa | 0V | 00:00:00 | 00:00:00 | 00:00:00 | |
| DL9RDZ-1 | 2026-08-31 23:46:41 | 63.72535 | -22.29154 | 107° | 38km/h | 12137m | 4.5m/s | -46.5°C | 1.5% | 0hPa | 0V | 00:00:00 | 00:00:00 | 00:00:00 | |
| DL9RDZ-1 | 2026-08-31 23:46:29 | 63.72566 | -22.29394 | 109° | 44km/h | 12089m | 5.1m/s | -47.0°C | 1.6% | 0hPa | 0V | 00:00:00 | 00:00:00 | 00:00:00 | |
| DL9RDZ-1 | 2026-08-31 23:46:19 | 63.72605 | -22.29615 | 109° | 44km/h | 12044m | 4.9m/s | -46.9°C | 1.6% | 0hPa | 0V | 00:00:00 | 00:00:00 | 00:00:00 | |
| DL9RDZ-1 | 2026-08-31 23:46:09 | 63.72632 | -22.29845 | 109° | 38km/h | 12002m | 3.7m/s | -46.7°C | 1.6% | 0hPa | 0V | 00:00:00 | 00:00:00 | 00:00:00 | |
| DL9RDZ-1 | 2026-08-31 23:45:58 | 63.72664 | -22.30077 | 108° | 35km/h | 11954m | 4.9m/s | -46.6°C | 1.6% | 0hPa | 0V | 00:00:00 | 00:00:00 | 00:00:00 | |
| DL9RDZ-1 | 2026-08-31 23:45:49 | 63.72699 | -22.30263 | 110° | 38km/h | 11908m | 4.7m/s | -46.8°C | 1.7% | 0hPa | 0V | 00:00:00 | 00:00:00 | 00:00:00 | |
| DL9RDZ-1 | 2026-08-31 23:45:38 | 63.72739 | -22.30457 | 121° | 37km/h | 11865m | 4.3m/s | -47.1°C | 1.7% | 0hPa | 0V | 00:00:00 | 00:00:00 | 00:00:00 | |
| DL9RDZ-1 | 2026-08-31 23:45:29 | 63.72777 | -22.30634 | 115° | 37km/h | 11821m | 4.7m/s | -47.1°C | 1.7% | 0hPa | 0V | 00:00:00 | 00:00:00 | 00:00:00 | |
| DL9RDZ-1 | 2026-08-31 23:45:18 | 63.72823 | -22.30869 | 109° | 40km/h | 11773m | 3.7m/s | -47.2°C | 1.8% | 0hPa | 0V | 00:00:00 | 00:00:00 | 00:00:00 | |
| DL9RDZ-1 | 2026-08-31 23:45:07 | 63.72868 | -22.31120 | 116° | 46km/h | 11726m | 4.3m/s | -47.4°C | 1.8% | 0hPa | 0V | 00:00:00 | 00:00:00 | 00:00:00 | |
| DL9RDZ-1 | 2026-08-31 23:44:47 | 63.72939 | -22.31555 | 108° | 37km/h | 11641m | 4.1m/s | -47.3°C | 1.9% | 0hPa | 0V | 00:00:00 | 00:00:00 | 00:00:00 | |
| DL9RDZ-1 | 2026-08-31 23:44:36 | 63.72971 | -22.31763 | 112° | 40km/h | 11598m | 4.9m/s | -47.2°C | 2.0% | 0hPa | 0V | 00:00:00 | 00:00:00 | 00:00:00 | |
| DL9RDZ-1 | 2026-08-31 23:44:25 | 63.73018 | -22.31986 | 121° | 38km/h | 11552m | 3.8m/s | -47.8°C | 2.2% | 0hPa | 0V | 00:00:00 | 00:00:00 | 00:00:00 | |
| DL9RDZ-1 | 2026-08-31 23:44:14 | 63.73080 | -22.32213 | 126° | 47km/h | 11505m | 4.0m/s | -48.2°C | 2.5% | 0hPa | 0V | 00:00:00 | 00:00:00 | 00:00:00 | |
| DL9RDZ-1 | 2026-08-31 23:44:04 | 63.73149 | -22.32440 | 124° | 46km/h | 11459m | 4.5m/s | -49.1°C | 2.6% | 0hPa | 0V | 00:00:00 | 00:00:00 | 00:00:00 | |
| DL9RDZ-1 | 2026-08-31 23:43:53 | 63.73208 | -22.32672 | 121° | 49km/h | 11416m | 3.6m/s | -49.3°C | 2.8% | 0hPa | 0V | 00:00:00 | 00:00:00 | 00:00:00 | |
| DL9RDZ-1 | 2026-08-31 23:43:43 | 63.73280 | -22.32904 | 126° | 47km/h | 11375m | 4.5m/s | -49.6°C | 3.0% | 0hPa | 0V | 00:00:00 | 00:00:00 | 00:00:00 | |
| DL9RDZ-1 | 2026-08-31 23:43:32 | 63.73362 | -22.33131 | 132° | 49km/h | 11329m | 4.8m/s | -49.5°C | 3.2% | 0hPa | 0V | 00:00:00 | 00:00:00 | 00:00:00 | |
| DL9RDZ-1 | 2026-08-31 23:43:11 | 63.73545 | -22.33580 | 133° | 53km/h | 11234m | 3.4m/s | -50.1°C | 3.9% | 0hPa | 0V | 00:00:00 | 00:00:00 | 00:00:00 | |
| DL9RDZ-1 | 2026-08-31 23:42:58 | 63.73632 | -22.33845 | 125° | 44km/h | 11190m | 4.1m/s | -50.5°C | 4.8% | 0hPa | 0V | 00:00:00 | 00:00:00 | 00:00:00 | |
| DL9RDZ-1 | 2026-08-31 23:42:48 | 63.73692 | -22.34085 | 120° | 51km/h | 11150m | 2.8m/s | -51.1°C | 6.0% | 0hPa | 0V | 00:00:00 | 00:00:00 | 00:00:00 | |
| DL9RDZ-1 | 2026-08-31 23:42:37 | 63.73765 | -22.34335 | 125° | 47km/h | 11107m | 4.0m/s | -51.4°C | 7.1% | 0hPa | 0V | 00:00:00 | 00:00:00 | 00:00:00 | |
| DL9RDZ-1 | 2026-08-31 23:42:27 | 63.73845 | -22.34585 | 124° | 51km/h | 11061m | 3.3m/s | -51.6°C | 8.5% | 0hPa | 0V | 00:00:00 | 00:00:00 | 00:00:00 | |
| DL9RDZ-1 | 2026-08-31 23:42:15 | 63.73914 | -22.34858 | 115° | 46km/h | 11015m | 3.6m/s | -52.5°C | 11.1% | 0hPa | 0V | 00:00:00 | 00:00:00 | 00:00:00 | |
| DL9RDZ-1 | 2026-08-31 23:42:04 | 63.73965 | -22.35103 | 117° | 42km/h | 10969m | 5.1m/s | -53.1°C | 13.9% | 0hPa | 0V | 00:00:00 | 00:00:00 | 00:00:00 | |
| DL9RDZ-1 | 2026-08-31 23:41:53 | 63.74027 | -22.35337 | 126° | 46km/h | 10923m | 4.9m/s | -54.0°C | 16.9% | 0hPa | 0V | 00:00:00 | 00:00:00 | 00:00:00 | |
| DL9RDZ-1 | 2026-08-31 23:41:42 | 63.74115 | -22.35570 | 139° | 47km/h | 10879m | 4.3m/s | -54.4°C | 18.4% | 0hPa | 0V | 00:00:00 | 00:00:00 | 00:00:00 | |
| DL9RDZ-1 | 2026-08-31 23:41:31 | 63.74205 | -22.35784 | 132° | 46km/h | 10833m | 3.3m/s | -54.9°C | 19.8% | 0hPa | 0V | 00:00:00 | 00:00:00 | 00:00:00 | |
| DL9RDZ-1 | 2026-08-31 23:41:21 | 63.74277 | -22.35980 | 134° | 44km/h | 10790m | 4.8m/s | -54.8°C | 20.4% | 0hPa | 0V | 00:00:00 | 00:00:00 | 00:00:00 | |
| DL9RDZ-1 | 2026-08-31 23:40:57 | 63.74449 | -22.36390 | 138° | 42km/h | 10685m | 4.8m/s | -54.3°C | 22.2% | 0hPa | 0V | 00:00:00 | 00:00:00 | 00:00:00 | |
| DL9RDZ-1 | 2026-08-31 23:40:46 | 63.74542 | -22.36577 | 142° | 49km/h | 10641m | 4.4m/s | -54.6°C | 24.6% | 0hPa | 0V | 00:00:00 | 00:00:00 | 00:00:00 | |
| DL9RDZ-1 | 2026-08-31 23:40:36 | 63.74636 | -22.36773 | 137° | 51km/h | 10599m | 3.8m/s | -55.0°C | 27.0% | 0hPa | 0V | 00:00:00 | 00:00:00 | 00:00:00 | |
| DL9RDZ-1 | 2026-08-31 23:40:26 | 63.74732 | -22.36984 | 138° | 60km/h | 10554m | 4.8m/s | -55.2°C | 28.8% | 0hPa | 0V | 00:00:00 | 00:00:00 | 00:00:00 | |
| DL9RDZ-1 | 2026-08-31 23:40:15 | 63.74851 | -22.37238 | 137° | 60km/h | 10506m | 3.8m/s | -55.3°C | 29.8% | 0hPa | 0V | 00:00:00 | 00:00:00 | 00:00:00 | |
| DL9RDZ-1 | 2026-08-31 23:40:05 | 63.74960 | -22.37479 | 138° | 60km/h | 10464m | 4.3m/s | -55.4°C | 31.2% | 0hPa | 0V | 00:00:00 | 00:00:00 | 00:00:00 | |
| DL9RDZ-1 | 2026-08-31 23:39:51 | 63.75109 | -22.37827 | 136° | 62km/h | 10402m | 5.0m/s | -55.4°C | 31.4% | 0hPa | 0V | 00:00:00 | 00:00:00 | 00:00:00 | |
| DL9RDZ-1 | 2026-08-31 23:39:41 | 63.75222 | -22.38065 | 138° | 58km/h | 10361m | 4.2m/s | -55.2°C | 31.7% | 0hPa | 0V | 00:00:00 | 00:00:00 | 00:00:00 | |
| DL9RDZ-1 | 2026-08-31 23:39:31 | 63.75332 | -22.38287 | 138° | 57km/h | 10320m | 3.7m/s | -55.2°C | 32.4% | 0hPa | 0V | 00:00:00 | 00:00:00 | 00:00:00 | |
| DL9RDZ-1 | 2026-08-31 23:39:20 | 63.75455 | -22.38520 | 142° | 60km/h | 10274m | 4.4m/s | -54.9°C | 33.9% | 0hPa | 0V | 00:00:00 | 00:00:00 | 00:00:00 | |
| DL9RDZ-1 | 2026-08-31 23:39:04 | 63.75640 | -22.38880 | 144° | 64km/h | 10208m | 4.3m/s | -54.9°C | 37.5% | 0hPa | 0V | 00:00:00 | 00:00:00 | 00:00:00 | |
| DL9RDZ-1 | 2026-08-31 23:38:54 | 63.75765 | -22.39112 | 141° | 62km/h | 10167m | 4.2m/s | -55.0°C | 40.2% | 0hPa | 0V | 00:00:00 | 00:00:00 | 00:00:00 | |
| DL9RDZ-1 | 2026-08-31 23:38:43 | 63.75893 | -22.39360 | 142° | 60km/h | 10121m | 3.9m/s | -55.0°C | 43.3% | 0hPa | 0V | 00:00:00 | 00:00:00 | 00:00:00 | |
| DL9RDZ-1 | 2026-08-31 23:38:33 | 63.76017 | -22.39575 | 142° | 64km/h | 10080m | 3.6m/s | -54.8°C | 45.4% | 0hPa | 0V | 00:00:00 | 00:00:00 | 00:00:00 | |
| DL9RDZ-1 | 2026-08-31 23:38:22 | 63.76154 | -22.39819 | 145° | 58km/h | 10034m | 3.6m/s | -55.2°C | 50.5% | 0hPa | 0V | 00:00:00 | 00:00:00 | 00:00:00 | |
| DL9RDZ-1 | 2026-08-31 23:38:11 | 63.76295 | -22.40036 | 148° | 60km/h | 9989m | 4.3m/s | -55.1°C | 51.7% | 0hPa | 0V | 00:00:00 | 00:00:00 | 00:00:00 | |
| DL9RDZ-1 | 2026-08-31 23:38:01 | 63.76427 | -22.40211 | 152° | 62km/h | 9945m | 4.6m/s | -54.9°C | 52.4% | 0hPa | 0V | 00:00:00 | 00:00:00 | 00:00:00 | |
| DL9RDZ-1 | 2026-08-31 23:37:50 | 63.76583 | -22.40391 | 154° | 66km/h | 9897m | 3.7m/s | -54.5°C | 53.7% | 0hPa | 0V | 00:00:00 | 00:00:00 | 00:00:00 | |
| DL9RDZ-1 | 2026-08-31 23:37:29 | 63.76892 | -22.40731 | 157° | 66km/h | 9811m | 3.9m/s | -54.0°C | 58.9% | 0hPa | 0V | 00:00:00 | 00:00:00 | 00:00:00 | |
| DL9RDZ-1 | 2026-08-31 23:37:18 | 63.77050 | -22.40917 | 153° | 64km/h | 9767m | 3.8m/s | -53.6°C | 57.3% | 0hPa | 0V | 00:00:00 | 00:00:00 | 00:00:00 | |
| DL9RDZ-1 | 2026-08-31 23:37:08 | 63.77192 | -22.41082 | 154° | 60km/h | 9726m | 4.2m/s | -53.4°C | 55.9% | 0hPa | 0V | 00:00:00 | 00:00:00 | 00:00:00 | |
| DL9RDZ-1 | 2026-08-31 23:36:57 | 63.77356 | -22.41268 | 155° | 66km/h | 9680m | 3.9m/s | -53.1°C | 56.5% | 0hPa | 0V | 00:00:00 | 00:00:00 | 00:00:00 | |
| DL9RDZ-1 | 2026-08-31 23:36:46 | 63.77517 | -22.41449 | 153° | 64km/h | 9634m | 3.9m/s | -52.9°C | 57.9% | 0hPa | 0V | 00:00:00 | 00:00:00 | 00:00:00 | |
| DL9RDZ-1 | 2026-08-31 23:36:35 | 63.77685 | -22.41642 | 154° | 69km/h | 9589m | 3.7m/s | -52.6°C | 57.8% | 0hPa | 0V | 00:00:00 | 00:00:00 | 00:00:00 | |
| DL9RDZ-1 | 2026-08-31 23:36:25 | 63.77840 | -22.41824 | 154° | 75km/h | 9550m | 4.0m/s | -52.3°C | 56.6% | 0hPa | 0V | 00:00:00 | 00:00:00 | 00:00:00 | |
| DL9RDZ-1 | 2026-08-31 23:36:14 | 63.78016 | -22.42023 | 154° | 73km/h | 9505m | 4.2m/s | -52.0°C | 55.9% | 0hPa | 0V | 00:00:00 | 00:00:00 | 00:00:00 | |
| DL9RDZ-1 | 2026-08-31 23:36:03 | 63.78194 | -22.42219 | 154° | 73km/h | 9459m | 4.6m/s | -51.9°C | 53.3% | 0hPa | 0V | 00:00:00 | 00:00:00 | 00:00:00 | |
| DL9RDZ-1 | 2026-08-31 23:35:53 | 63.78363 | -22.42402 | 156° | 68km/h | 9414m | 5.0m/s | -51.7°C | 48.6% | 0hPa | 0V | 00:00:00 | 00:00:00 | 00:00:00 | |
| DL9RDZ-1 | 2026-08-31 23:35:41 | 63.78529 | -22.42585 | 154° | 68km/h | 9367m | 4.5m/s | -51.2°C | 49.8% | 0hPa | 0V | 00:00:00 | 00:00:00 | 00:00:00 | |
| DL9RDZ-1 | 2026-08-31 23:35:31 | 63.78673 | -22.42747 | 155° | 62km/h | 9325m | 3.5m/s | -50.9°C | 48.5% | 0hPa | 0V | 00:00:00 | 00:00:00 | 00:00:00 | |
| DL9RDZ-1 | 2026-08-31 23:35:21 | 63.78820 | -22.42907 | 155° | 64km/h | 9284m | 4.0m/s | -50.6°C | 46.3% | 0hPa | 0V | 00:00:00 | 00:00:00 | 00:00:00 | |
| DL9RDZ-1 | 2026-08-31 23:35:11 | 63.78984 | -22.43093 | 154° | 68km/h | 9240m | 3.6m/s | -50.2°C | 43.0% | 0hPa | 0V | 00:00:00 | 00:00:00 | 00:00:00 | |
| DL9RDZ-1 | 2026-08-31 23:34:59 | 63.79149 | -22.43286 | 155° | 66km/h | 9196m | 3.9m/s | -49.8°C | 43.0% | 0hPa | 0V | 00:00:00 | 00:00:00 | 00:00:00 | |
| DL9RDZ-1 | 2026-08-31 23:34:34 | 63.79513 | -22.43703 | 154° | 64km/h | 9095m | 3.4m/s | -49.2°C | 44.8% | 0hPa | 0V | 00:00:00 | 00:00:00 | 00:00:00 | |
| DL9RDZ-1 | 2026-08-31 23:34:23 | 63.79671 | -22.43894 | 152° | 64km/h | 9052m | 3.4m/s | -48.9°C | 44.8% | 0hPa | 0V | 00:00:00 | 00:00:00 | 00:00:00 | |
| DL9RDZ-1 | 2026-08-31 23:34:12 | 63.79829 | -22.44073 | 153° | 64km/h | 9008m | 3.8m/s | -48.6°C | 46.7% | 0hPa | 0V | 00:00:00 | 00:00:00 | 00:00:00 | |
| DL9RDZ-1 | 2026-08-31 23:34:03 | 63.79971 | -22.44243 | 154° | 64km/h | 8968m | 4.2m/s | -48.4°C | 46.6% | 0hPa | 0V | 00:00:00 | 00:00:00 | 00:00:00 | |
| DL9RDZ-1 | 2026-08-31 23:33:52 | 63.80117 | -22.44413 | 152° | 66km/h | 8927m | 3.1m/s | -48.1°C | 47.1% | 0hPa | 0V | 00:00:00 | 00:00:00 | 00:00:00 | |
| DL9RDZ-1 | 2026-08-31 23:33:41 | 63.80273 | -22.44613 | 154° | 68km/h | 8884m | 3.6m/s | -47.8°C | 47.1% | 0hPa | 0V | 00:00:00 | 00:00:00 | 00:00:00 | |
| DL9RDZ-1 | 2026-08-31 23:33:31 | 63.80424 | -22.44792 | 152° | 68km/h | 8844m | 3.2m/s | -47.4°C | 48.0% | 0hPa | 0V | 00:00:00 | 00:00:00 | 00:00:00 | |
| DL9RDZ-1 | 2026-08-31 23:33:22 | 63.80577 | -22.44968 | 152° | 64km/h | 8805m | 4.5m/s | -47.2°C | 49.6% | 0hPa | 0V | 00:00:00 | 00:00:00 | 00:00:00 | |
| DL9RDZ-1 | 2026-08-31 23:32:58 | 63.80916 | -22.45389 | 153° | 66km/h | 8713m | 3.0m/s | -46.6°C | 52.0% | 0hPa | 0V | 00:00:00 | 00:00:00 | 00:00:00 | |
| DL9RDZ-1 | 2026-08-31 23:32:48 | 63.81063 | -22.45573 | 155° | 66km/h | 8674m | 3.9m/s | -46.3°C | 52.0% | 0hPa | 0V | 00:00:00 | 00:00:00 | 00:00:00 | |
| DL9RDZ-1 | 2026-08-31 23:32:37 | 63.81220 | -22.45753 | 156° | 64km/h | 8630m | 3.9m/s | -46.0°C | 50.5% | 0hPa | 0V | 00:00:00 | 00:00:00 | 00:00:00 | |
| DL9RDZ-1 | 2026-08-31 23:32:27 | 63.81382 | -22.45936 | 155° | 66km/h | 8585m | 5.0m/s | -45.7°C | 50.2% | 0hPa | 0V | 00:00:00 | 00:00:00 | 00:00:00 | |
| DL9RDZ-1 | 2026-08-31 23:32:15 | 63.81540 | -22.46121 | 153° | 64km/h | 8539m | 3.9m/s | -45.4°C | 51.5% | 0hPa | 0V | 00:00:00 | 00:00:00 | 00:00:00 | |
| DL9RDZ-1 | 2026-08-31 23:32:04 | 63.81693 | -22.46311 | 152° | 60km/h | 8495m | 4.2m/s | -45.3°C | 50.3% | 0hPa | 0V | 00:00:00 | 00:00:00 | 00:00:00 | |
| DL9RDZ-1 | 2026-08-31 23:31:54 | 63.81827 | -22.46480 | 155° | 62km/h | 8454m | 3.2m/s | -44.9°C | 48.7% | 0hPa | 0V | 00:00:00 | 00:00:00 | 00:00:00 | |
| DL9RDZ-1 | 2026-08-31 23:31:44 | 63.81969 | -22.46624 | 157° | 58km/h | 8412m | 4.5m/s | -44.8°C | 50.9% | 0hPa | 0V | 00:00:00 | 00:00:00 | 00:00:00 | |
| DL9RDZ-1 | 2026-08-31 23:31:24 | 63.82279 | -22.46955 | 155° | 68km/h | 8322m | 3.9m/s | -44.2°C | 50.5% | 0hPa | 0V | 00:00:00 | 00:00:00 | 00:00:00 | |
| DL9RDZ-1 | 2026-08-31 23:31:13 | 63.82425 | -22.47116 | 153° | 62km/h | 8282m | 3.5m/s | -43.8°C | 49.0% | 0hPa | 0V | 00:00:00 | 00:00:00 | 00:00:00 | |
| DL9RDZ-1 | 2026-08-31 23:31:03 | 63.82569 | -22.47281 | 155° | 64km/h | 8239m | 4.0m/s | -43.6°C | 49.9% | 0hPa | 0V | 00:00:00 | 00:00:00 | 00:00:00 | |
| DL9RDZ-1 | 2026-08-31 23:30:52 | 63.82729 | -22.47455 | 154° | 64km/h | 8192m | 3.9m/s | -43.2°C | 52.6% | 0hPa | 0V | 00:00:00 | 00:00:00 | 00:00:00 | |
| DL9RDZ-1 | 2026-08-31 23:30:39 | 63.82912 | -22.47666 | 153° | 64km/h | 8137m | 3.6m/s | -42.8°C | 52.2% | 0hPa | 0V | 00:00:00 | 00:00:00 | 00:00:00 | |
| DL9RDZ-1 | 2026-08-31 23:30:29 | 63.83053 | -22.47823 | 155° | 60km/h | 8095m | 3.1m/s | -42.5°C | 54.7% | 0hPa | 0V | 00:00:00 | 00:00:00 | 00:00:00 | |
| DL9RDZ-1 | 2026-08-31 23:30:18 | 63.83208 | -22.47993 | 157° | 64km/h | 8047m | 4.9m/s | -42.1°C | 55.2% | 0hPa | 0V | 00:00:00 | 00:00:00 | 00:00:00 | |
| DL9RDZ-1 | 2026-08-31 23:30:08 | 63.83355 | -22.48146 | 156° | 66km/h | 8004m | 4.3m/s | -41.9°C | 56.0% | 0hPa | 0V | 00:00:00 | 00:00:00 | 00:00:00 | |
| DL9RDZ-1 | 2026-08-31 23:29:57 | 63.83521 | -22.48315 | 156° | 66km/h | 7956m | 4.3m/s | -41.7°C | 58.9% | 0hPa | 0V | 00:00:00 | 00:00:00 | 00:00:00 | |
| DL9RDZ-1 | 2026-08-31 23:29:47 | 63.83665 | -22.48472 | 155° | 64km/h | 7913m | 3.9m/s | -41.4°C | 58.7% | 0hPa | 0V | 00:00:00 | 00:00:00 | 00:00:00 | |
| DL9RDZ-1 | 2026-08-31 23:29:37 | 63.83805 | -22.48629 | 155° | 64km/h | 7869m | 3.6m/s | -41.0°C | 57.3% | 0hPa | 0V | 00:00:00 | 00:00:00 | 00:00:00 | |
| DL9RDZ-1 | 2026-08-31 23:29:26 | 63.83962 | -22.48804 | 155° | 64km/h | 7821m | 4.9m/s | -40.7°C | 63.2% | 0hPa | 0V | 00:00:00 | 00:00:00 | 00:00:00 | |
| DL9RDZ-1 | 2026-08-31 23:29:16 | 63.84105 | -22.48969 | 153° | 64km/h | 7778m | 5.3m/s | -40.4°C | 63.4% | 0hPa | 0V | 00:00:00 | 00:00:00 | 00:00:00 | |
| DL9RDZ-1 | 2026-08-31 23:29:05 | 63.84261 | -22.49153 | 151° | 66km/h | 7732m | 4.6m/s | -40.0°C | 63.4% | 0hPa | 0V | 00:00:00 | 00:00:00 | 00:00:00 | |
| DL9RDZ-1 | 2026-08-31 23:28:44 | 63.84559 | -22.49532 | 151° | 62km/h | 7645m | 4.1m/s | -39.2°C | 54.3% | 0hPa | 0V | 00:00:00 | 00:00:00 | 00:00:00 | |
| DL9RDZ-1 | 2026-08-31 23:28:33 | 63.84716 | -22.49728 | 151° | 66km/h | 7601m | 3.6m/s | -38.8°C | 53.4% | 0hPa | 0V | 00:00:00 | 00:00:00 | 00:00:00 | |
| DL9RDZ-1 | 2026-08-31 23:28:22 | 63.84874 | -22.49916 | 152° | 62km/h | 7553m | 4.2m/s | -38.3°C | 52.0% | 0hPa | 0V | 00:00:00 | 00:00:00 | 00:00:00 | |
| DL9RDZ-1 | 2026-08-31 23:28:12 | 63.85015 | -22.50086 | 153° | 64km/h | 7512m | 5.0m/s | -38.0°C | 52.2% | 0hPa | 0V | 00:00:00 | 00:00:00 | 00:00:00 | |
| DL9RDZ-1 | 2026-08-31 23:28:01 | 63.85164 | -22.50264 | 152° | 60km/h | 7466m | 4.3m/s | -37.7°C | 52.8% | 0hPa | 0V | 00:00:00 | 00:00:00 | 00:00:00 | |
| DL9RDZ-1 | 2026-08-31 23:27:51 | 63.85300 | -22.50432 | 151° | 60km/h | 7424m | 3.5m/s | -37.3°C | 54.9% | 0hPa | 0V | 00:00:00 | 00:00:00 | 00:00:00 | |
| DL9RDZ-1 | 2026-08-31 23:27:41 | 63.85436 | -22.50614 | 150° | 62km/h | 7382m | 3.6m/s | -37.1°C | 56.2% | 0hPa | 0V | 00:00:00 | 00:00:00 | 00:00:00 | |
| DL9RDZ-1 | 2026-08-31 23:27:20 | 63.85714 | -22.50965 | 152° | 62km/h | 7296m | 4.4m/s | -36.4°C | 55.4% | 0hPa | 0V | 00:00:00 | 00:00:00 | 00:00:00 | |
| DL9RDZ-1 | 2026-08-31 23:27:10 | 63.85847 | -22.51125 | 155° | 60km/h | 7253m | 3.7m/s | -36.1°C | 56.0% | 0hPa | 0V | 00:00:00 | 00:00:00 | 00:00:00 | |
| DL9RDZ-1 | 2026-08-31 23:26:59 | 63.85995 | -22.51303 | 150° | 60km/h | 7207m | 4.2m/s | -35.8°C | 55.9% | 0hPa | 0V | 00:00:00 | 00:00:00 | 00:00:00 | |
| DL9RDZ-1 | 2026-08-31 23:26:48 | 63.86139 | -22.51503 | 148° | 60km/h | 7162m | 4.2m/s | -35.5°C | 56.1% | 0hPa | 0V | 00:00:00 | 00:00:00 | 00:00:00 | |
| DL9RDZ-1 | 2026-08-31 23:26:38 | 63.86268 | -22.51690 | 147° | 60km/h | 7121m | 4.7m/s | -35.3°C | 60.6% | 0hPa | 0V | 00:00:00 | 00:00:00 | 00:00:00 | |
| DL9RDZ-1 | 2026-08-31 23:26:27 | 63.86408 | -22.51904 | 148° | 60km/h | 7075m | 4.0m/s | -35.0°C | 65.5% | 0hPa | 0V | 00:00:00 | 00:00:00 | 00:00:00 | |
| DL9RDZ-1 | 2026-08-31 23:26:16 | 63.86546 | -22.52118 | 146° | 60km/h | 7029m | 3.9m/s | -34.6°C | 67.2% | 0hPa | 0V | 00:00:00 | 00:00:00 | 00:00:00 | |
| DL9RDZ-1 | 2026-08-31 23:26:05 | 63.86688 | -22.52314 | 148° | 58km/h | 6983m | 3.0m/s | -34.2°C | 65.7% | 0hPa | 0V | 00:00:00 | 00:00:00 | 00:00:00 | |
| DL9RDZ-1 | 2026-08-31 23:25:55 | 63.86816 | -22.52502 | 151° | 62km/h | 6942m | 3.6m/s | -33.9°C | 62.0% | 0hPa | 0V | 00:00:00 | 00:00:00 | 00:00:00 | |
| DL9RDZ-1 | 2026-08-31 23:25:45 | 63.86945 | -22.52682 | 149° | 62km/h | 6900m | 3.8m/s | -33.5°C | 60.6% | 0hPa | 0V | 00:00:00 | 00:00:00 | 00:00:00 | |
| DL9RDZ-1 | 2026-08-31 23:25:34 | 63.87084 | -22.52881 | 148° | 58km/h | 6853m | 3.5m/s | -33.2°C | 62.4% | 0hPa | 0V | 00:00:00 | 00:00:00 | 00:00:00 | |
| DL9RDZ-1 | 2026-08-31 23:25:23 | 63.87219 | -22.53070 | 149° | 55km/h | 6808m | 4.4m/s | -32.8°C | 62.3% | 0hPa | 0V | 00:00:00 | 00:00:00 | 00:00:00 | |
| DL9RDZ-1 | 2026-08-31 23:25:12 | 63.87346 | -22.53259 | 148° | 58km/h | 6763m | 4.2m/s | -32.5°C | 61.9% | 0hPa | 0V | 00:00:00 | 00:00:00 | 00:00:00 | |
| DL9RDZ-1 | 2026-08-31 23:25:01 | 63.87471 | -22.53439 | 150° | 53km/h | 6716m | 3.4m/s | -32.1°C | 62.7% | 0hPa | 0V | 00:00:00 | 00:00:00 | 00:00:00 | |
| DL9RDZ-1 | 2026-08-31 23:24:51 | 63.87586 | -22.53602 | 147° | 55km/h | 6672m | 3.7m/s | -31.8°C | 62.4% | 0hPa | 0V | 00:00:00 | 00:00:00 | 00:00:00 | |
| DL9RDZ-1 | 2026-08-31 23:24:40 | 63.87714 | -22.53780 | 150° | 53km/h | 6626m | 3.5m/s | -31.5°C | 63.1% | 0hPa | 0V | 00:00:00 | 00:00:00 | 00:00:00 | |
| DL9RDZ-1 | 2026-08-31 23:24:30 | 63.87828 | -22.53953 | 148° | 53km/h | 6586m | 3.2m/s | -31.2°C | 64.0% | 0hPa | 0V | 00:00:00 | 00:00:00 | 00:00:00 | |
| DL9RDZ-1 | 2026-08-31 23:24:19 | 63.87951 | -22.54121 | 150° | 51km/h | 6540m | 3.3m/s | -31.1°C | 67.7% | 0hPa | 0V | 00:00:00 | 00:00:00 | 00:00:00 | |
| DL9RDZ-1 | 2026-08-31 23:24:09 | 63.88064 | -22.54271 | 153° | 51km/h | 6498m | 4.2m/s | -30.9°C | 68.5% | 0hPa | 0V | 00:00:00 | 00:00:00 | 00:00:00 | |
| DL9RDZ-1 | 2026-08-31 23:23:58 | 63.88192 | -22.54430 | 155° | 53km/h | 6450m | 2.8m/s | -30.6°C | 67.7% | 0hPa | 0V | 00:00:00 | 00:00:00 | 00:00:00 | |
| DL9RDZ-1 | 2026-08-31 23:23:47 | 63.88317 | -22.54587 | 150° | 53km/h | 6402m | 3.5m/s | -30.1°C | 66.0% | 0hPa | 0V | 00:00:00 | 00:00:00 | 00:00:00 | |
| DL9RDZ-1 | 2026-08-31 23:23:37 | 63.88431 | -22.54723 | 154° | 47km/h | 6353m | 4.6m/s | -29.7°C | 64.7% | 0hPa | 0V | 00:00:00 | 00:00:00 | 00:00:00 | |
| DL9RDZ-1 | 2026-08-31 23:23:19 | 63.88630 | -22.54962 | 150° | 51km/h | 6276m | 3.6m/s | -29.4°C | 66.0% | 0hPa | 0V | 00:00:00 | 00:00:00 | 00:00:00 | |
| DL9RDZ-1 | 2026-08-31 23:23:08 | 63.88751 | -22.55129 | 148° | 49km/h | 6230m | 4.0m/s | -29.1°C | 63.2% | 0hPa | 0V | 00:00:00 | 00:00:00 | 00:00:00 | |
| DL9RDZ-1 | 2026-08-31 23:22:57 | 63.88862 | -22.55297 | 148° | 47km/h | 6182m | 4.0m/s | -28.8°C | 62.3% | 0hPa | 0V | 00:00:00 | 00:00:00 | 00:00:00 | |
| DL9RDZ-1 | 2026-08-31 23:22:47 | 63.88964 | -22.55431 | 151° | 46km/h | 6140m | 4.2m/s | -28.5°C | 62.5% | 0hPa | 0V | 00:00:00 | 00:00:00 | 00:00:00 | |
| DL9RDZ-1 | 2026-08-31 23:22:36 | 63.89077 | -22.55579 | 149° | 46km/h | 6094m | 3.6m/s | -28.2°C | 61.3% | 0hPa | 0V | 00:00:00 | 00:00:00 | 00:00:00 | |
| DL9RDZ-1 | 2026-08-31 23:22:26 | 63.89180 | -22.55716 | 149° | 46km/h | 6050m | 3.2m/s | -27.9°C | 61.5% | 0hPa | 0V | 00:00:00 | 00:00:00 | 00:00:00 | |
| DL9RDZ-1 | 2026-08-31 23:22:15 | 63.89289 | -22.55880 | 150° | 49km/h | 6001m | 4.6m/s | -27.7°C | 60.4% | 0hPa | 0V | 00:00:00 | 00:00:00 | 00:00:00 | |
| DL9RDZ-1 | 2026-08-31 23:22:04 | 63.89393 | -22.56036 | 148° | 44km/h | 5953m | 3.7m/s | -27.4°C | 61.1% | 0hPa | 0V | 00:00:00 | 00:00:00 | 00:00:00 | |
| DL9RDZ-1 | 2026-08-31 23:21:53 | 63.89502 | -22.56183 | 153° | 46km/h | 5906m | 3.3m/s | -27.0°C | 59.9% | 0hPa | 0V | 00:00:00 | 00:00:00 | 00:00:00 | |
| DL9RDZ-1 | 2026-08-31 23:21:43 | 63.89598 | -22.56318 | 148° | 44km/h | 5863m | 4.1m/s | -26.7°C | 58.2% | 0hPa | 0V | 00:00:00 | 00:00:00 | 00:00:00 | |
| DL9RDZ-1 | 2026-08-31 23:21:33 | 63.89688 | -22.56451 | 148° | 40km/h | 5818m | 5.2m/s | -26.4°C | 59.3% | 0hPa | 0V | 00:00:00 | 00:00:00 | 00:00:00 | |
| DL9RDZ-1 | 2026-08-31 23:21:22 | 63.89786 | -22.56615 | 147° | 44km/h | 5767m | 4.1m/s | -26.0°C | 59.0% | 0hPa | 0V | 00:00:00 | 00:00:00 | 00:00:00 | |
| DL9RDZ-1 | 2026-08-31 23:21:12 | 63.89882 | -22.56754 | 148° | 44km/h | 5724m | 3.3m/s | -25.8°C | 59.5% | 0hPa | 0V | 00:00:00 | 00:00:00 | 00:00:00 | |
| DL9RDZ-1 | 2026-08-31 23:21:02 | 63.89977 | -22.56890 | 149° | 46km/h | 5681m | 3.8m/s | -25.5°C | 61.1% | 0hPa | 0V | 00:00:00 | 00:00:00 | 00:00:00 | |
| DL9RDZ-1 | 2026-08-31 23:20:51 | 63.90083 | -22.57038 | 147° | 46km/h | 5635m | 5.0m/s | -25.2°C | 58.0% | 0hPa | 0V | 00:00:00 | 00:00:00 | 00:00:00 | |
| DL9RDZ-1 | 2026-08-31 23:20:37 | 63.90212 | -22.57238 | 148° | 44km/h | 5577m | 3.9m/s | -24.9°C | 59.3% | 0hPa | 0V | 00:00:00 | 00:00:00 | 00:00:00 | |
| DL9RDZ-1 | 2026-08-31 23:20:26 | 63.90312 | -22.57397 | 145° | 46km/h | 5530m | 2.3m/s | -24.7°C | 60.5% | 0hPa | 0V | 00:00:00 | 00:00:00 | 00:00:00 | |
| DL9RDZ-1 | 2026-08-31 23:20:17 | 63.90403 | -22.57545 | 143° | 42km/h | 5489m | 4.8m/s | -24.4°C | 59.5% | 0hPa | 0V | 00:00:00 | 00:00:00 | 00:00:00 | |
| DL9RDZ-1 | 2026-08-31 23:20:06 | 63.90491 | -22.57685 | 146° | 46km/h | 5451m | 3.5m/s | -24.2°C | 60.4% | 0hPa | 0V | 00:00:00 | 00:00:00 | 00:00:00 | |
| DL9RDZ-1 | 2026-08-31 23:19:55 | 63.90591 | -22.57838 | 151° | 44km/h | 5406m | 3.2m/s | -24.0°C | 60.0% | 0hPa | 0V | 00:00:00 | 00:00:00 | 00:00:00 | |
| DL9RDZ-1 | 2026-08-31 23:19:34 | 63.90777 | -22.58124 | 150° | 42km/h | 5324m | 2.5m/s | -23.6°C | 60.6% | 0hPa | 0V | 00:00:00 | 00:00:00 | 00:00:00 | |
| DL9RDZ-1 | 2026-08-31 23:19:23 | 63.90872 | -22.58278 | 147° | 40km/h | 5284m | 3.3m/s | -23.3°C | 60.3% | 0hPa | 0V | 00:00:00 | 00:00:00 | 00:00:00 | |
| DL9RDZ-1 | 2026-08-31 23:19:12 | 63.90964 | -22.58422 | 145° | 42km/h | 5242m | 4.8m/s | -23.0°C | 58.8% | 0hPa | 0V | 00:00:00 | 00:00:00 | 00:00:00 | |
| DL9RDZ-1 | 2026-08-31 23:19:01 | 63.91055 | -22.58559 | 145° | 38km/h | 5199m | 5.2m/s | -22.8°C | 59.1% | 0hPa | 0V | 00:00:00 | 00:00:00 | 00:00:00 | |
| DL9RDZ-1 | 2026-08-31 23:18:50 | 63.91149 | -22.58702 | 149° | 44km/h | 5155m | 2.9m/s | -22.6°C | 61.2% | 0hPa | 0V | 00:00:00 | 00:00:00 | 00:00:00 | |
| DL9RDZ-1 | 2026-08-31 23:18:39 | 63.91244 | -22.58845 | 150° | 42km/h | 5112m | 3.2m/s | -22.6°C | 63.8% | 0hPa | 0V | 00:00:00 | 00:00:00 | 00:00:00 | |
| DL9RDZ-1 | 2026-08-31 23:18:28 | 63.91340 | -22.58965 | 157° | 42km/h | 5070m | 3.9m/s | -22.2°C | 61.2% | 0hPa | 0V | 00:00:00 | 00:00:00 | 00:00:00 | |
| DL9RDZ-1 | 2026-08-31 23:18:17 | 63.91438 | -22.59087 | 155° | 40km/h | 5028m | 3.8m/s | -21.9°C | 58.4% | 0hPa | 0V | 00:00:00 | 00:00:00 | 00:00:00 | |
| DL9RDZ-1 | 2026-08-31 23:18:07 | 63.91535 | -22.59219 | 149° | 44km/h | 4985m | 3.4m/s | -21.5°C | 56.2% | 0hPa | 0V | 00:00:00 | 00:00:00 | 00:00:00 | |
| DL9RDZ-1 | 2026-08-31 23:17:55 | 63.91630 | -22.59346 | 147° | 40km/h | 4944m | 4.2m/s | -21.4°C | 49.2% | 0hPa | 0V | 00:00:00 | 00:00:00 | 00:00:00 | |
| DL9RDZ-1 | 2026-08-31 23:17:45 | 63.91713 | -22.59486 | 139° | 37km/h | 4908m | 4.4m/s | -21.3°C | 41.5% | 0hPa | 0V | 00:00:00 | 00:00:00 | 00:00:00 | |
| DL9RDZ-1 | 2026-08-31 23:17:34 | 63.91798 | -22.59623 | 147° | 37km/h | 4868m | 4.0m/s | -21.1°C | 37.9% | 0hPa | 0V | 00:00:00 | 00:00:00 | 00:00:00 | |
| DL9RDZ-1 | 2026-08-31 23:17:24 | 63.91882 | -22.59747 | 152° | 38km/h | 4828m | 5.1m/s | -20.9°C | 31.2% | 0hPa | 0V | 00:00:00 | 00:00:00 | 00:00:00 | |
| DL9RDZ-1 | 2026-08-31 23:17:13 | 63.91977 | -22.59878 | 147° | 37km/h | 4786m | 2.8m/s | -20.7°C | 28.4% | 0hPa | 0V | 00:00:00 | 00:00:00 | 00:00:00 | |
| DL9RDZ-1 | 2026-08-31 23:17:03 | 63.92060 | -22.59998 | 150° | 40km/h | 4747m | 3.2m/s | -20.5°C | 27.2% | 0hPa | 0V | 00:00:00 | 00:00:00 | 00:00:00 | |
| DL9RDZ-1 | 2026-08-31 23:16:53 | 63.92137 | -22.60124 | 147° | 38km/h | 4709m | 2.5m/s | -20.2°C | 28.7% | 0hPa | 0V | 00:00:00 | 00:00:00 | 00:00:00 | |
| DL9RDZ-1 | 2026-08-31 23:16:42 | 63.92222 | -22.60261 | 157° | 35km/h | 4663m | 3.8m/s | -19.8°C | 28.1% | 0hPa | 0V | 00:00:00 | 00:00:00 | 00:00:00 | |
| DL9RDZ-1 | 2026-08-31 23:16:32 | 63.92298 | -22.60380 | 149° | 37km/h | 4621m | 3.9m/s | -19.6°C | 27.4% | 0hPa | 0V | 00:00:00 | 00:00:00 | 00:00:00 | |
| DL9RDZ-1 | 2026-08-31 23:16:21 | 63.92385 | -22.60496 | 154° | 37km/h | 4574m | 4.8m/s | -19.4°C | 30.0% | 0hPa | 0V | 00:00:00 | 00:00:00 | 00:00:00 | |
| DL9RDZ-1 | 2026-08-31 23:16:10 | 63.92475 | -22.60600 | 154° | 38km/h | 4532m | 2.5m/s | -19.3°C | 30.5% | 0hPa | 0V | 00:00:00 | 00:00:00 | 00:00:00 | |
| DL9RDZ-1 | 2026-08-31 23:15:59 | 63.92568 | -22.60726 | 149° | 38km/h | 4489m | 5.0m/s | -19.1°C | 29.8% | 0hPa | 0V | 00:00:00 | 00:00:00 | 00:00:00 | |
| DL9RDZ-1 | 2026-08-31 23:15:48 | 63.92660 | -22.60862 | 146° | 38km/h | 4446m | 3.6m/s | -18.8°C | 29.8% | 0hPa | 0V | 00:00:00 | 00:00:00 | 00:00:00 | |
| DL9RDZ-1 | 2026-08-31 23:15:37 | 63.92750 | -22.60964 | 152° | 38km/h | 4397m | 4.4m/s | -18.6°C | 31.1% | 0hPa | 0V | 00:00:00 | 00:00:00 | 00:00:00 | |
| DL9RDZ-1 | 2026-08-31 23:15:27 | 63.92840 | -22.61080 | 152° | 37km/h | 4351m | 4.3m/s | -18.5°C | 34.6% | 0hPa | 0V | 00:00:00 | 00:00:00 | 00:00:00 | |
| DL9RDZ-1 | 2026-08-31 23:15:15 | 63.92924 | -22.61189 | 153° | 31km/h | 4304m | 5.2m/s | -18.3°C | 35.4% | 0hPa | 0V | 00:00:00 | 00:00:00 | 00:00:00 | |
| DL9RDZ-1 | 2026-08-31 23:15:04 | 63.92999 | -22.61292 | 159° | 31km/h | 4254m | 3.8m/s | -18.0°C | 33.7% | 0hPa | 0V | 00:00:00 | 00:00:00 | 00:00:00 | |
| DL9RDZ-1 | 2026-08-31 23:14:50 | 63.93100 | -22.61405 | 154° | 33km/h | 4196m | 2.5m/s | -17.7°C | 33.0% | 0hPa | 0V | 00:00:00 | 00:00:00 | 00:00:00 | |
| DL9RDZ-1 | 2026-08-31 23:14:40 | 63.93173 | -22.61486 | 155° | 37km/h | 4157m | 4.4m/s | -17.6°C | 39.1% | 0hPa | 0V | 00:00:00 | 00:00:00 | 00:00:00 | |
| DL9RDZ-1 | 2026-08-31 23:14:29 | 63.93260 | -22.61580 | 149° | 31km/h | 4112m | 5.6m/s | -17.4°C | 41.6% | 0hPa | 0V | 00:00:00 | 00:00:00 | 00:00:00 | |
| DL9RDZ-1 | 2026-08-31 23:14:18 | 63.93343 | -22.61692 | 152° | 37km/h | 4067m | 4.2m/s | -17.4°C | 42.0% | 0hPa | 0V | 00:00:00 | 00:00:00 | 00:00:00 | |
| DL9RDZ-1 | 2026-08-31 23:14:07 | 63.93423 | -22.61783 | 151° | 33km/h | 4021m | 3.9m/s | -17.7°C | 68.2% | 0hPa | 0V | 00:00:00 | 00:00:00 | 00:00:00 | |
| DL9RDZ-1 | 2026-08-31 23:13:56 | 63.93493 | -22.61886 | 154° | 27km/h | 3971m | 5.1m/s | -17.4°C | 69.5% | 0hPa | 0V | 00:00:00 | 00:00:00 | 00:00:00 | |
| DL9RDZ-1 | 2026-08-31 23:13:45 | 63.93557 | -22.61969 | 153° | 27km/h | 3924m | 4.8m/s | -17.0°C | 70.8% | 0hPa | 0V | 00:00:00 | 00:00:00 | 00:00:00 | |
| DL9RDZ-1 | 2026-08-31 23:13:35 | 63.93618 | -22.62045 | 153° | 27km/h | 3881m | 4.9m/s | -16.7°C | 71.6% | 0hPa | 0V | 00:00:00 | 00:00:00 | 00:00:00 | |
| DL9RDZ-1 | 2026-08-31 23:13:25 | 63.93677 | -22.62113 | 154° | 27km/h | 3839m | 3.8m/s | -16.2°C | 59.9% | 0hPa | 0V | 00:00:00 | 00:00:00 | 00:00:00 | |
| DL9RDZ-1 | 2026-08-31 23:13:14 | 63.93737 | -22.62177 | 164° | 24km/h | 3792m | 3.6m/s | -15.8°C | 56.3% | 0hPa | 0V | 00:00:00 | 00:00:00 | 00:00:00 | |
| DL9RDZ-1 | 2026-08-31 23:13:04 | 63.93795 | -22.62239 | 161° | 26km/h | 3747m | 3.3m/s | -15.3°C | 50.6% | 0hPa | 0V | 00:00:00 | 00:00:00 | 00:00:00 | |
| DL9RDZ-1 | 2026-08-31 23:12:53 | 63.93865 | -22.62312 | 153° | 26km/h | 3697m | 3.3m/s | -14.9°C | 44.5% | 0hPa | 0V | 00:00:00 | 00:00:00 | 00:00:00 | |
| DL9RDZ-1 | 2026-08-31 23:12:42 | 63.93929 | -22.62391 | 155° | 26km/h | 3648m | 4.3m/s | -14.7°C | 58.1% | 0hPa | 0V | 00:00:00 | 00:00:00 | 00:00:00 | |
| DL9RDZ-1 | 2026-08-31 23:12:32 | 63.93994 | -22.62478 | 148° | 33km/h | 3605m | 4.6m/s | -14.5°C | 51.1% | 0hPa | 0V | 00:00:00 | 00:00:00 | 00:00:00 | |
| DL9RDZ-1 | 2026-08-31 23:12:22 | 63.94051 | -22.62569 | 154° | 26km/h | 3565m | 4.5m/s | -14.4°C | 62.2% | 0hPa | 0V | 00:00:00 | 00:00:00 | 00:00:00 | |
| DL9RDZ-1 | 2026-08-31 23:12:11 | 63.94114 | -22.62655 | 151° | 27km/h | 3511m | 3.4m/s | -14.0°C | 67.3% | 0hPa | 0V | 00:00:00 | 00:00:00 | 00:00:00 | |
| DL9RDZ-1 | 2026-08-31 23:12:01 | 63.94175 | -22.62748 | 148° | 27km/h | 3472m | 4.4m/s | -13.7°C | 68.3% | 0hPa | 0V | 00:00:00 | 00:00:00 | 00:00:00 | |
| DL9RDZ-1 | 2026-08-31 23:11:51 | 63.94238 | -22.62834 | 146° | 33km/h | 3428m | 4.2m/s | -13.4°C | 68.4% | 0hPa | 0V | 00:00:00 | 00:00:00 | 00:00:00 | |
| DL9RDZ-1 | 2026-08-31 23:11:40 | 63.94313 | -22.62932 | 148° | 29km/h | 3381m | 4.4m/s | -13.1°C | 67.9% | 0hPa | 0V | 00:00:00 | 00:00:00 | 00:00:00 | |
| DL9RDZ-1 | 2026-08-31 23:11:29 | 63.94374 | -22.63008 | 151° | 26km/h | 3335m | 7.1m/s | -12.7°C | 69.6% | 0hPa | 0V | 00:00:00 | 00:00:00 | 00:00:00 | |
| DL9RDZ-1 | 2026-08-31 23:11:19 | 63.94442 | -22.63087 | 149° | 31km/h | 3281m | 7.4m/s | -12.4°C | 74.3% | 0hPa | 0V | 00:00:00 | 00:00:00 | 00:00:00 | |
| DL9RDZ-1 | 2026-08-31 23:11:08 | 63.94511 | -22.63172 | 155° | 31km/h | 3213m | 4.5m/s | -11.9°C | 75.8% | 0hPa | 0V | 00:00:00 | 00:00:00 | 00:00:00 | |
| DL9RDZ-1 | 2026-08-31 23:10:25 | 63.94743 | -22.63420 | 153° | 16km/h | 2992m | 4.1m/s | -10.2°C | 63.6% | 0hPa | 0V | 00:00:00 | 00:00:00 | 00:00:00 | |
| DL9RDZ-1 | 2026-08-31 23:10:15 | 63.94790 | -22.63485 | 163° | 22km/h | 2945m | 5.1m/s | -9.8°C | 61.0% | 0hPa | 0V | 00:00:00 | 00:00:00 | 00:00:00 | |
| DL9RDZ-1 | 2026-08-31 23:10:03 | 63.94835 | -22.63516 | 166° | 18km/h | 2898m | 6.2m/s | -9.6°C | 66.1% | 0hPa | 0V | 00:00:00 | 00:00:00 | 00:00:00 | |
| DL9RDZ-1 | 2026-08-31 23:09:25 | 63.94967 | -22.63634 | 191° | 15km/h | 2702m | 5.1m/s | -8.5°C | 84.1% | 0hPa | 0V | 00:00:00 | 00:00:00 | 00:00:00 | |
| DL9RDZ-1 | 2026-08-31 23:09:14 | 63.94998 | -22.63625 | 202° | 9km/h | 2647m | 5.5m/s | -8.0°C | 81.6% | 0hPa | 0V | 00:00:00 | 00:00:00 | 00:00:00 | |
| DL9RDZ-1 | 2026-08-31 23:09:03 | 63.95033 | -22.63598 | 221° | 11km/h | 2589m | 4.8m/s | -7.9°C | 84.5% | 0hPa | 0V | 00:00:00 | 00:00:00 | 00:00:00 | |
| DL9RDZ-1 | 2026-08-31 23:08:52 | 63.95059 | -22.63561 | 235° | 11km/h | 2533m | 4.4m/s | -7.5°C | 81.9% | 0hPa | 0V | 00:00:00 | 00:00:00 | 00:00:00 | |
| DL9RDZ-1 | 2026-08-31 23:08:14 | 63.95180 | -22.63382 | 207° | 15km/h | 2344m | 3.7m/s | -6.2°C | 86.0% | 0hPa | 0V | 00:00:00 | 00:00:00 | 00:00:00 | |
| DL9RDZ-1 | 2026-08-31 23:08:04 | 63.95203 | -22.63351 | 193° | 7km/h | 2281m | 5.7m/s | -5.7°C | 90.7% | 0hPa | 0V | 00:00:00 | 00:00:00 | 00:00:00 | |
| DL9RDZ-1 | 2026-08-31 23:07:53 | 63.95228 | -22.63324 | 211° | 9km/h | 2230m | 5.3m/s | -5.4°C | 93.7% | 0hPa | 0V | 00:00:00 | 00:00:00 | 00:00:00 | |
| DL9RDZ-1 | 2026-08-31 23:07:43 | 63.95252 | -22.63301 | 220° | 11km/h | 2187m | 4.0m/s | -5.0°C | 92.6% | 0hPa | 0V | 00:00:00 | 00:00:00 | 00:00:00 | |
| DL9RDZ-1 | 2026-08-31 23:07:32 | 63.95273 | -22.63263 | 303° | 4km/h | 2138m | 5.1m/s | -4.6°C | 87.6% | 0hPa | 0V | 00:00:00 | 00:00:00 | 00:00:00 | |
| DL9RDZ-1 | 2026-08-31 23:07:21 | 63.95286 | -22.63232 | 246° | 7km/h | 2073m | 7.4m/s | -4.0°C | 84.9% | 0hPa | 0V | 00:00:00 | 00:00:00 | 00:00:00 | |
| DL9RDZ-1 | 2026-08-31 23:07:11 | 63.95295 | -22.63200 | 222° | 11km/h | 2017m | 6.0m/s | -3.5°C | 82.4% | 0hPa | 0V | 00:00:00 | 00:00:00 | 00:00:00 | |
| DL9RDZ-1 | 2026-08-31 23:07:00 | 63.95316 | -22.63161 | 205° | 13km/h | 1953m | 4.7m/s | -3.1°C | 74.9% | 0hPa | 0V | 00:00:00 | 00:00:00 | 00:00:00 | |
| DL9RDZ-1 | 2026-08-31 23:06:50 | 63.95338 | -22.63142 | 134° | 5km/h | 1898m | 6.0m/s | -2.7°C | 73.9% | 0hPa | 0V | 00:00:00 | 00:00:00 | 00:00:00 | |
| DL9RDZ-1 | 2026-08-31 23:06:40 | 63.95365 | -22.63137 | 192° | 11km/h | 1844m | 7.5m/s | -2.4°C | 75.1% | 0hPa | 0V | 00:00:00 | 00:00:00 | 00:00:00 | |
| DL9RDZ-1 | 2026-08-31 23:06:29 | 63.95401 | -22.63120 | 184° | 16km/h | 1778m | 5.2m/s | -1.8°C | 75.8% | 0hPa | 0V | 00:00:00 | 00:00:00 | 00:00:00 | |
| DL9RDZ-1 | 2026-08-31 23:06:18 | 63.95440 | -22.63111 | 202° | 11km/h | 1718m | 5.0m/s | -1.3°C | 75.7% | 0hPa | 0V | 00:00:00 | 00:00:00 | 00:00:00 | |
| DL9RDZ-1 | 2026-08-31 23:06:08 | 63.95480 | -22.63091 | 183° | 20km/h | 1661m | 5.3m/s | -0.7°C | 70.8% | 0hPa | 0V | 00:00:00 | 00:00:00 | 00:00:00 | |
| DL9RDZ-1 | 2026-08-31 23:05:57 | 63.95515 | -22.63069 | 216° | 13km/h | 1599m | 5.8m/s | -0.2°C | 68.7% | 0hPa | 0V | 00:00:00 | 00:00:00 | 00:00:00 | |
| DL9RDZ-1 | 2026-08-31 23:05:47 | 63.95545 | -22.63045 | 214° | 13km/h | 1542m | 5.6m/s | -0.3°C | 80.8% | 0hPa | 0V | 00:00:00 | 00:00:00 | 00:00:00 | |
| DL9RDZ-1 | 2026-08-31 23:05:37 | 63.95586 | -22.63006 | 196° | 16km/h | 1486m | 5.4m/s | 0.1°C | 79.7% | 0hPa | 0V | 00:00:00 | 00:00:00 | 00:00:00 | |
| DL9RDZ-1 | 2026-08-31 23:05:26 | 63.95632 | -22.62938 | 212° | 22km/h | 1426m | 6.3m/s | 0.7°C | 77.2% | 0hPa | 0V | 00:00:00 | 00:00:00 | 00:00:00 | |
| DL9RDZ-1 | 2026-08-31 23:05:16 | 63.95674 | -22.62881 | 205° | 18km/h | 1367m | 6.2m/s | 1.3°C | 76.7% | 0hPa | 0V | 00:00:00 | 00:00:00 | 00:00:00 | |
| DL9RDZ-1 | 2026-08-31 23:05:06 | 63.95711 | -22.62827 | 210° | 16km/h | 1316m | 5.6m/s | 1.8°C | 75.0% | 0hPa | 0V | 00:00:00 | 00:00:00 | 00:00:00 | |
| DL9RDZ-1 | 2026-08-31 23:04:56 | 63.95757 | -22.62782 | 207° | 27km/h | 1264m | 4.4m/s | 2.3°C | 73.4% | 0hPa | 0V | 00:00:00 | 00:00:00 | 00:00:00 | |
| DL9RDZ-1 | 2026-08-31 23:04:45 | 63.95808 | -22.62727 | 213° | 22km/h | 1198m | 6.0m/s | 2.9°C | 71.0% | 0hPa | 0V | 00:00:00 | 00:00:00 | 00:00:00 | |
| DL9RDZ-1 | 2026-08-31 23:04:34 | 63.95860 | -22.62675 | 214° | 18km/h | 1134m | 5.5m/s | 3.5°C | 69.1% | 0hPa | 0V | 00:00:00 | 00:00:00 | 00:00:00 | |
| DL9RDZ-1 | 2026-08-31 23:04:23 | 63.95913 | -22.62623 | 211° | 16km/h | 1076m | 5.8m/s | 3.9°C | 67.1% | 0hPa | 0V | 00:00:00 | 00:00:00 | 00:00:00 | |
| DL9RDZ-1 | 2026-08-31 23:04:13 | 63.95959 | -22.62580 | 219° | 22km/h | 1025m | 5.5m/s | 4.2°C | 65.0% | 0hPa | 0V | 00:00:00 | 00:00:00 | 00:00:00 | |
| DL9RDZ-1 | 2026-08-31 23:04:02 | 63.96010 | -22.62514 | 219° | 24km/h | 968m | 5.4m/s | 4.7°C | 59.3% | 0hPa | 0V | 00:00:00 | 00:00:00 | 00:00:00 | |
| DL9RDZ-1 | 2026-08-31 23:03:51 | 63.96067 | -22.62444 | 220° | 29km/h | 912m | 4.6m/s | 5.2°C | 0% | 0hPa | 0V | 00:00:00 | 00:00:00 | 00:00:00 | |
| DL9RDZ-1 | 2026-08-31 23:03:41 | 63.96117 | -22.62369 | 206° | 35km/h | 862m | 6.0m/s | 0°C | 0% | 0hPa | 0V | 00:00:00 | 00:00:00 | 00:00:00 | |
| DL9RDZ-1 | 2026-08-31 23:03:30 | 63.96178 | -22.62286 | 209° | 26km/h | 805m | 5.7m/s | 0°C | 0% | 0hPa | 0V | 00:00:00 | 00:00:00 | 00:00:00 | |
| DL9RDZ-1 | 2026-08-31 23:03:19 | 63.96240 | -22.62228 | 210° | 27km/h | 747m | 5.3m/s | 0°C | 0% | 0hPa | 0V | 00:00:00 | 00:00:00 | 00:00:00 |